Observation data for Dell City 1N on 05/22/2020      Previous  Date  Next       Current Mesonet Observations  Soil Data  Daily Summary Page  Observations in Plain Language
KDC1 220500Z 30011KT 15/M03 A2991 RMK A01 T01481033  RH  028%=      5-min Rain = 0
KDC1 220501Z 29010KT 15/M04 A2991 RMK A01 T01491038  RH  027%=      5-min Rain = 0
KDC1 220502Z 29009KT 15/M04 A2991 RMK A01 T01511040  RH  026%=      5-min Rain = 0
KDC1 220503Z 28009KT 15/M04 A2991 RMK A01 T01521041  RH  026%=      5-min Rain = 0
KDC1 220504Z 28010KT 15/M04 A2991 RMK A01 T01521043  RH  026%=      5-min Rain = 0
KDC1 220505Z 28010KT 15/M04 A2991 RMK A01 T01531044  RH  025%=      5-min Rain = 0
KDC1 220506Z 27010KT 15/M04 A2991 RMK A01 T01541044  RH  025%=      5-min Rain = 0
KDC1 220507Z 28011KT 16/M04 A2991 RMK A01 T01561043  RH  025%=      5-min Rain = 0
KDC1 220508Z 28011KT 16/M04 A2991 RMK A01 T01581043  RH  025%=      5-min Rain = 0
KDC1 220509Z 28012KT 16/M04 A2991 RMK A01 T01621044  RH  024%=      5-min Rain = 0
KDC1 220510Z 27010KT 17/M04 A2991 RMK A01 T01661044  RH  023%=      5-min Rain = 0
KDC1 220511Z 27009KT 17/M04 A2991 RMK A01 T01681043  RH  023%=      5-min Rain = 0
KDC1 220512Z 27010KT 17/M05 A2991 RMK A01 T01691045  RH  023%=      5-min Rain = 0
KDC1 220513Z 28010KT 17/M04 A2991 RMK A01 T01691044  RH  023%=      5-min Rain = 0
KDC1 220514Z 28009KT 17/M04 A2991 RMK A01 T01671042  RH  024%=      5-min Rain = 0
KDC1 220515Z 28009KT 16/M04 A2991 RMK A01 T01641041  RH  024%=      5-min Rain = 0
KDC1 220516Z 28009KT 16/M04 A2991 RMK A01 T01631039  RH  025%=      5-min Rain = 0
KDC1 220517Z 28009KT 16/M04 A2991 RMK A01 T01611037  RH  025%=      5-min Rain = 0
KDC1 220518Z 29010KT 16/M04 A2991 RMK A01 T01591036  RH  026%=      5-min Rain = 0
KDC1 220519Z 29010KT 16/M04 A2991 RMK A01 T01581037  RH  026%=      5-min Rain = 0
KDC1 220520Z 29009KT 16/M04 A2991 RMK A01 T01571040  RH  025%=      5-min Rain = 0
KDC1 220521Z 29009KT 16/M04 A2991 RMK A01 T01571041  RH  025%=      5-min Rain = 0
KDC1 220522Z 29009KT 16/M04 A2991 RMK A01 T01571041  RH  025%=      5-min Rain = 0
KDC1 220523Z 29009KT 16/M04 A2991 RMK A01 T01551041  RH  026%=      5-min Rain = 0
KDC1 220524Z 29008KT 16/M04 A2991 RMK A01 T01551042  RH  026%=      5-min Rain = 0
KDC1 220525Z 29007KT 15/M04 A2991 RMK A01 T01541041  RH  026%=      5-min Rain = 0
KDC1 220526Z 30006KT 15/M04 A2991 RMK A01 T01521041  RH  026%=      5-min Rain = 0
KDC1 220527Z 30005KT 15/M04 A2991 RMK A01 T01511042  RH  026%=      5-min Rain = 0
KDC1 220528Z 34003KT 15/M04 A2991 RMK A01 T01501044  RH  026%=      5-min Rain = 0
KDC1 220529Z 04003KT 15/M05 A2991 RMK A01 T01501047  RH  025%=      5-min Rain = 0
KDC1 220530Z 05003KT 15/M04 A2991 RMK A01 T01491044  RH  026%=      5-min Rain = 0
KDC1 220531Z 03002KT 15/M04 A2992 RMK A01 T01491036  RH  028%=      5-min Rain = 0
KDC1 220532Z 02003KT 15/M03 A2992 RMK A01 T01481034  RH  028%=      5-min Rain = 0
KDC1 220533Z 02004KT 15/M03 A2992 RMK A01 T01481034  RH  028%=      5-min Rain = 0
KDC1 220534Z 00005KT 15/M03 A2992 RMK A01 T01481033  RH  028%=      5-min Rain = 0
KDC1 220535Z 01004KT 15/M04 A2992 RMK A01 T01481035  RH  028%=      5-min Rain = 0
KDC1 220536Z 01004KT 15/M04 A2992 RMK A01 T01491038  RH  027%=      5-min Rain = 0
KDC1 220537Z 02006KT 15/M04 A2992 RMK A01 T01511042  RH  026%=      5-min Rain = 0
KDC1 220538Z 03006KT 15/M04 A2992 RMK A01 T01541043  RH  025%=      5-min Rain = 0
KDC1 220539Z 03006KT 16/M04 A2992 RMK A01 T01571042  RH  025%=      5-min Rain = 0
KDC1 220540Z 04004KT 16/M04 A2992 RMK A01 T01571044  RH  025%=      5-min Rain = 0
KDC1 220541Z 04005KT 16/M05 A2992 RMK A01 T01581045  RH  024%=      5-min Rain = 0
KDC1 220542Z 03006KT 16/M05 A2992 RMK A01 T01581046  RH  024%=      5-min Rain = 0
KDC1 220543Z 04005KT 16/M05 A2992 RMK A01 T01581050  RH  024%=      5-min Rain = 0
KDC1 220544Z 03005KT 16/M05 A2992 RMK A01 T01581052  RH  023%=      5-min Rain = 0
KDC1 220545Z 03006KT 16/M05 A2992 RMK A01 T01581054  RH  023%=      5-min Rain = 0
KDC1 220546Z 03006KT 16/M06 A2992 RMK A01 T01581056  RH  023%=      5-min Rain = 0
KDC1 220547Z 02006KT 16/M06 A2992 RMK A01 T01581059  RH  022%=      5-min Rain = 0
KDC1 220548Z 01006KT 16/M06 A2992 RMK A01 T01591059  RH  022%=      5-min Rain = 0
KDC1 220549Z 01007KT 16/M06 A2992 RMK A01 T01591059  RH  022%=      5-min Rain = 0
KDC1 220550Z 01006KT 16/M06 A2992 RMK A01 T01591058  RH  022%=      5-min Rain = 0
KDC1 220551Z 36006KT 16/M06 A2992 RMK A01 T01591058  RH  022%=      5-min Rain = 0
KDC1 220552Z 35006KT 16/M06 A2992 RMK A01 T01591058  RH  022%=      5-min Rain = 0
KDC1 220553Z 34006KT 16/M06 A2992 RMK A01 T01591057  RH  022%=      5-min Rain = 0
KDC1 220554Z 34006KT 16/M06 A2992 RMK A01 T01591057  RH  022%=      5-min Rain = 0
KDC1 220555Z 35006KT 16/M06 A2992 RMK A01 T01611057  RH  022%=      5-min Rain = 0
KDC1 220556Z 35005KT 16/M06 A2992 RMK A01 T01611057  RH  022%=      5-min Rain = 0
KDC1 220557Z 35005KT 16/M06 A2992 RMK A01 T01611057  RH  022%=      5-min Rain = 0
KDC1 220558Z 35004KT 16/M06 A2993 RMK A01 T01611057  RH  022%=      5-min Rain = 0
KDC1 220559Z 35004KT 16/M05 A2992 RMK A01 T01611052  RH  023%=      5-min Rain = 0
KDC1 220600Z 35004KT 16/M05 A2993 RMK A01 T01591045  RH  024%=      5-min Rain = 0
KDC1 220601Z 35004KT 16/M04 A2993 RMK A01 T01561044  RH  025%=      5-min Rain = 0
KDC1 220602Z 34003KT 16/M04 A2993 RMK A01 T01551044  RH  025%=      5-min Rain = 0
KDC1 220603Z 34003KT 15/M04 A2993 RMK A01 T01531044  RH  025%=      5-min Rain = 0
KDC1 220604Z 32002KT 15/M05 A2992 RMK A01 T01531046  RH  025%=      5-min Rain = 0
KDC1 220605Z 31003KT 15/M05 A2992 RMK A01 T01541046  RH  025%=      5-min Rain = 0
KDC1 220606Z 31003KT 16/M05 A2992 RMK A01 T01551049  RH  024%=      5-min Rain = 0
KDC1 220607Z 31003KT 16/M05 A2992 RMK A01 T01561049  RH  024%=      5-min Rain = 0
KDC1 220608Z 30003KT 16/M05 A2992 RMK A01 T01571050  RH  024%=      5-min Rain = 0
KDC1 220609Z 30004KT 16/M05 A2992 RMK A01 T01581051  RH  023%=      5-min Rain = 0
KDC1 220610Z 31004KT 16/M05 A2992 RMK A01 T01591051  RH  023%=      5-min Rain = 0
KDC1 220611Z 31005KT 16/M05 A2992 RMK A01 T01591048  RH  024%=      5-min Rain = 0
KDC1 220612Z 31006KT 16/M05 A2993 RMK A01 T01581046  RH  024%=      5-min Rain = 0
KDC1 220613Z 31006KT 16/M04 A2993 RMK A01 T01551042  RH  025%=      5-min Rain = 0
KDC1 220614Z 32005KT 15/M04 A2992 RMK A01 T01521042  RH  026%=      5-min Rain = 0
KDC1 220615Z 31005KT 15/M04 A2992 RMK A01 T01511040  RH  027%=      5-min Rain = 0
KDC1 220616Z 30005KT 15/M04 A2992 RMK A01 T01511041  RH  026%=      5-min Rain = 0
KDC1 220617Z 29006KT 15/M04 A2993 RMK A01 T01531041  RH  026%=      5-min Rain = 0
KDC1 220618Z 28006KT 15/M05 A2993 RMK A01 T01541046  RH  025%=      5-min Rain = 0
KDC1 220619Z 28005KT 16/M06 A2992 RMK A01 T01571058  RH  022%=      5-min Rain = 0
KDC1 220620Z 28006KT 16/M07 A2993 RMK A01 T01631068  RH  020%=      5-min Rain = 0
KDC1 220621Z 28006KT 17/M07 A2993 RMK A01 T01671069  RH  019%=      5-min Rain = 0
KDC1 220622Z 28005KT 17/M07 A2993 RMK A01 T01681065  RH  020%=      5-min Rain = 0
KDC1 220623Z 28005KT 17/M07 A2992 RMK A01 T01671067  RH  019%=      5-min Rain = 0
KDC1 220624Z 28004KT 17/M07 A2992 RMK A01 T01671071  RH  019%=      5-min Rain = 0
KDC1 220625Z 28003KT 17/M08 A2992 RMK A01 T01671075  RH  018%=      5-min Rain = 0
KDC1 220626Z 27005KT 17/M08 A2993 RMK A01 T01681081  RH  017%=      5-min Rain = 0
KDC1 220627Z 27005KT 17/M08 A2993 RMK A01 T01701080  RH  017%=      5-min Rain = 0
KDC1 220628Z 26004KT 17/M08 A2993 RMK A01 T01711080  RH  017%=      5-min Rain = 0
KDC1 220629Z 26003KT 17/M08 A2993 RMK A01 T01711076  RH  018%=      5-min Rain = 0
KDC1 220630Z 26003KT 17/M07 A2993 RMK A01 T01711066  RH  019%=      5-min Rain = 0
KDC1 220631Z 25001KT 17/M06 A2993 RMK A01 T01691056  RH  021%=      5-min Rain = 0
KDC1 220632Z 27002KT 17/M04 A2993 RMK A01 T01651037  RH  025%=      5-min Rain = 0
KDC1 220633Z 28003KT 16/M02 A2993 RMK A01 T01561018  RH  030%=      5-min Rain = 0
KDC1 220634Z 28003KT 15/M01 A2993 RMK A01 T01471014  RH  033%=      5-min Rain = 0
KDC1 220635Z 27002KT 14/M01 A2993 RMK A01 T01411010  RH  035%=      5-min Rain = 0
KDC1 220636Z 26004KT 14/M00 A2993 RMK A01 T01371004  RH  038%=      5-min Rain = 0
KDC1 220637Z 26004KT 14/M00 A2993 RMK A01 T01351002  RH  039%=      5-min Rain = 0
KDC1 220638Z 25005KT 13/M00 A2993 RMK A01 T01341002  RH  039%=      5-min Rain = 0
KDC1 220639Z 24004KT 13/M01 A2993 RMK A01 T01331014  RH  036%=      5-min Rain = 0
KDC1 220640Z 25004KT 14/M03 A2992 RMK A01 T01351029  RH  032%=      5-min Rain = 0
KDC1 220641Z 26004KT 14/M03 A2993 RMK A01 T01401032  RH  030%=      5-min Rain = 0
KDC1 220642Z 26005KT 14/M03 A2993 RMK A01 T01421031  RH  030%=      5-min Rain = 0
KDC1 220643Z 25005KT 14/M03 A2993 RMK A01 T01431030  RH  030%=      5-min Rain = 0
KDC1 220644Z 24004KT 15/M05 A2993 RMK A01 T01451049  RH  026%=      5-min Rain = 0
KDC1 220645Z 26005KT 15/M05 A2993 RMK A01 T01481054  RH  024%=      5-min Rain = 0
KDC1 220646Z 27006KT 15/M04 A2993 RMK A01 T01511044  RH  026%=      5-min Rain = 0
KDC1 220647Z 28005KT 15/M04 A2993 RMK A01 T01511041  RH  026%=      5-min Rain = 0
KDC1 220648Z 28004KT 15/M05 A2993 RMK A01 T01501046  RH  025%=      5-min Rain = 0
KDC1 220649Z 28005KT 15/M05 A2993 RMK A01 T01491045  RH  026%=      5-min Rain = 0
KDC1 220650Z 28006KT 15/M03 A2993 RMK A01 T01471032  RH  029%=      5-min Rain = 0
KDC1 220651Z 28006KT 14/M03 A2993 RMK A01 T01421029  RH  031%=      5-min Rain = 0
KDC1 220652Z 28005KT 14/M03 A2993 RMK A01 T01371026  RH  032%=      5-min Rain = 0
KDC1 220653Z 28005KT 13/M03 A2993 RMK A01 T01331030  RH  032%=      5-min Rain = 0
KDC1 220654Z 28006KT 13/M04 A2993 RMK A01 T01311035  RH  031%=      5-min Rain = 0
KDC1 220655Z 28006KT 13/M04 A2993 RMK A01 T01301039  RH  031%=      5-min Rain = 0
KDC1 220656Z 28005KT 13/M04 A2993 RMK A01 T01281039  RH  031%=      5-min Rain = 0
KDC1 220657Z 27006KT 13/M05 A2993 RMK A01 T01281052  RH  028%=      5-min Rain = 0
KDC1 220658Z 27006KT 13/M06 A2993 RMK A01 T01321060  RH  026%=      5-min Rain = 0
KDC1 220659Z 28007KT 14/M05 A2993 RMK A01 T01351054  RH  026%=      5-min Rain = 0
KDC1 220700Z 28007KT 13/M04 A2993 RMK A01 T01341043  RH  029%=      5-min Rain = 0
KDC1 220701Z 28008KT 13/M04 A2993 RMK A01 T01291041  RH  030%=      5-min Rain = 0
KDC1 220702Z 28008KT 13/M04 A2993 RMK A01 T01271043  RH  030%=      5-min Rain = 0
KDC1 220703Z 28008KT 13/M05 A2993 RMK A01 T01281050  RH  028%=      5-min Rain = 0
KDC1 220704Z 28007KT 13/M06 A2993 RMK A01 T01331060  RH  026%=      5-min Rain = 0
KDC1 220705Z 29006KT 14/M06 A2993 RMK A01 T01371061  RH  025%=      5-min Rain = 0
KDC1 220706Z 29007KT 14/M06 A2993 RMK A01 T01391063  RH  024%=      5-min Rain = 0
KDC1 220707Z 29006KT 14/M07 A2993 RMK A01 T01401065  RH  024%=      5-min Rain = 0
KDC1 220708Z 28006KT 14/M07 A2993 RMK A01 T01401066  RH  023%=      5-min Rain = 0
KDC1 220709Z 28005KT 14/M06 A2993 RMK A01 T01401063  RH  024%=      5-min Rain = 0
KDC1 220710Z 25004KT 14/M07 A2993 RMK A01 T01401068  RH  023%=      5-min Rain = 0
KDC1 220711Z 18002KT 14/M07 A2993 RMK A01 T01431067  RH  023%=      5-min Rain = 0
KDC1 220712Z 17003KT 14/M05 A2994 RMK A01 T01441046  RH  027%=      5-min Rain = 0
KDC1 220713Z 19003KT 14/M03 A2994 RMK A01 T01441032  RH  029%=      5-min Rain = 0
KDC1 220714Z 21003KT 15/M04 A2994 RMK A01 T01451042  RH  027%=      5-min Rain = 0
KDC1 220715Z 24003KT 15/M05 A2994 RMK A01 T01461049  RH  026%=      5-min Rain = 0
KDC1 220716Z 24002KT 15/M05 A2994 RMK A01 T01471054  RH  024%=      5-min Rain = 0
KDC1 220717Z 22003KT 15/M05 A2994 RMK A01 T01481052  RH  025%=      5-min Rain = 0
KDC1 220718Z 22001KT 15/M05 A2993 RMK A01 T01481050  RH  025%=      5-min Rain = 0
KDC1 220719Z 19001KT 15/M05 A2993 RMK A01 T01471049  RH  025%=      5-min Rain = 0
KDC1 220720Z 25001KT 15/M05 A2993 RMK A01 T01461046  RH  026%=      5-min Rain = 0
KDC1 220721Z 25001KT 14/M04 A2993 RMK A01 T01411035  RH  029%=      5-min Rain = 0
KDC1 220722Z 27001KT 14/M02 A2993 RMK A01 T01371022  RH  033%=      5-min Rain = 0
KDC1 220723Z 27002KT 13/M02 A2993 RMK A01 T01291015  RH  037%=      5-min Rain = 0
KDC1 220724Z 26002KT 12/M01 A2993 RMK A01 T01231010  RH  040%=      5-min Rain = 0
KDC1 220725Z 26003KT 12/M01 A2993 RMK A01 T01181007  RH  042%=      5-min Rain = 0
KDC1 220726Z 25003KT 11/M01 A2993 RMK A01 T01141006  RH  044%=      5-min Rain = 0
KDC1 220727Z 25003KT 11/M00 A2993 RMK A01 T01111003  RH  045%=      5-min Rain = 0
KDC1 220728Z 26003KT 11/00 A2993 RMK A01 T01090000  RH  047%=      5-min Rain = 0
KDC1 220729Z 26003KT 11/00 A2993 RMK A01 T01060001  RH  048%=      5-min Rain = 0
KDC1 220730Z 25003KT 11/M00 A2993 RMK A01 T01051001  RH  048%=      5-min Rain = 0
KDC1 220731Z 25004KT 11/M00 A2993 RMK A01 T01051002  RH  047%=      5-min Rain = 0
KDC1 220732Z 25005KT 11/M01 A2993 RMK A01 T01061006  RH  046%=      5-min Rain = 0
KDC1 220733Z 24005KT 11/M01 A2993 RMK A01 T01071009  RH  045%=      5-min Rain = 0
KDC1 220734Z 23006KT 11/M02 A2993 RMK A01 T01121015  RH  041%=      5-min Rain = 0
KDC1 220735Z 23005KT 12/M02 A2993 RMK A01 T01191020  RH  038%=      5-min Rain = 0
KDC1 220736Z 24005KT 12/M02 A2993 RMK A01 T01241021  RH  036%=      5-min Rain = 0
KDC1 220737Z 24006KT 13/M02 A2993 RMK A01 T01271017  RH  037%=      5-min Rain = 0
KDC1 220738Z 24006KT 13/M01 A2993 RMK A01 T01281014  RH  037%=      5-min Rain = 0
KDC1 220739Z 25006KT 13/M01 A2993 RMK A01 T01271009  RH  039%=      5-min Rain = 0
KDC1 220740Z 26004KT 13/M01 A2993 RMK A01 T01261005  RH  041%=      5-min Rain = 0
KDC1 220741Z 25003KT 12/M00 A2993 RMK A01 T01231003  RH  042%=      5-min Rain = 0
KDC1 220742Z 25006KT 12/00 A2993 RMK A01 T01220000  RH  043%=      5-min Rain = 0
KDC1 220743Z 25006KT 12/00 A2993 RMK A01 T01200002  RH  044%=      5-min Rain = 0
KDC1 220744Z 24006KT 12/M00 A2993 RMK A01 T01201004  RH  042%=      5-min Rain = 0
KDC1 220745Z 24005KT 12/M01 A2993 RMK A01 T01221013  RH  039%=      5-min Rain = 0
KDC1 220746Z 24005KT 13/M02 A2993 RMK A01 T01261017  RH  037%=      5-min Rain = 0
KDC1 220747Z 23005KT 13/M02 A2993 RMK A01 T01301018  RH  036%=      5-min Rain = 0
KDC1 220748Z 23004KT 13/M03 A2993 RMK A01 T01331026  RH  033%=      5-min Rain = 0
KDC1 220749Z 23003KT 14/M03 A2994 RMK A01 T01361028  RH  032%=      5-min Rain = 0
KDC1 220750Z 23004KT 14/M03 A2994 RMK A01 T01381031  RH  031%=      5-min Rain = 0
KDC1 220751Z 22004KT 14/M03 A2994 RMK A01 T01411030  RH  031%=      5-min Rain = 0
KDC1 220752Z 22004KT 14/M03 A2994 RMK A01 T01421032  RH  030%=      5-min Rain = 0
KDC1 220753Z 21003KT 14/M03 A2994 RMK A01 T01441033  RH  029%=      5-min Rain = 0
KDC1 220754Z 19002KT 14/M03 A2994 RMK A01 T01441025  RH  031%=      5-min Rain = 0
KDC1 220755Z 20003KT 14/M02 A2994 RMK A01 T01421021  RH  032%=      5-min Rain = 0
KDC1 220756Z 21003KT 14/M02 A2994 RMK A01 T01411017  RH  034%=      5-min Rain = 0
KDC1 220757Z 21003KT 14/M02 A2994 RMK A01 T01391020  RH  033%=      5-min Rain = 0
KDC1 220758Z 20002KT 14/M02 A2994 RMK A01 T01371024  RH  033%=      5-min Rain = 0
KDC1 220759Z 20003KT 14/M03 A2994 RMK A01 T01361032  RH  031%=      5-min Rain = 0
KDC1 220800Z 20001KT 14/M04 A2994 RMK A01 T01371043  RH  028%=      5-min Rain = 0
KDC1 220801Z 04000KT 14/M04 A2994 RMK A01 T01381038  RH  029%=      5-min Rain = 0
KDC1 220802Z 07004KT 13/M01 A2994 RMK A01 T01311009  RH  038%=      5-min Rain = 0
KDC1 220803Z 09001KT 12/M01 A2994 RMK A01 T01221007  RH  041%=      5-min Rain = 0
KDC1 220804Z 16002KT 12/M01 A2994 RMK A01 T01191012  RH  040%=      5-min Rain = 0
KDC1 220805Z 16002KT 12/M01 A2994 RMK A01 T01181014  RH  040%=      5-min Rain = 0
KDC1 220806Z 18001KT 12/M01 A2994 RMK A01 T01181012  RH  041%=      5-min Rain = 0
KDC1 220807Z 18000KT 12/M01 A2994 RMK A01 T01181012  RH  041%=      5-min Rain = 0
KDC1 220808Z 09001KT 12/M01 A2994 RMK A01 T01181013  RH  040%=      5-min Rain = 0
KDC1 220809Z 08000KT 12/M01 A2994 RMK A01 T01171013  RH  040%=      5-min Rain = 0
KDC1 220810Z 19000KT 12/M02 A2994 RMK A01 T01161015  RH  040%=      5-min Rain = 0
KDC1 220811Z 21003KT 12/M02 A2994 RMK A01 T01151016  RH  040%=      5-min Rain = 0
KDC1 220812Z 21004KT 12/M02 A2994 RMK A01 T01151017  RH  040%=      5-min Rain = 0
KDC1 220813Z 21006KT 12/M02 A2993 RMK A01 T01171018  RH  039%=      5-min Rain = 0
KDC1 220814Z 21006KT 12/M03 A2993 RMK A01 T01221026  RH  036%=      5-min Rain = 0
KDC1 220815Z 21004KT 13/M04 A2993 RMK A01 T01291037  RH  031%=      5-min Rain = 0
KDC1 220816Z 21002KT 14/M04 A2994 RMK A01 T01351039  RH  030%=      5-min Rain = 0
KDC1 220817Z 27003KT 14/M03 A2994 RMK A01 T01361029  RH  032%=      5-min Rain = 0
KDC1 220818Z 27003KT 13/M01 A2994 RMK A01 T01281005  RH  040%=      5-min Rain = 0
KDC1 220819Z 22003KT 12/M00 A2994 RMK A01 T01181001  RH  044%=      5-min Rain = 0
KDC1 220820Z 27003KT 12/M01 A2994 RMK A01 T01171011  RH  041%=      5-min Rain = 0
KDC1 220821Z 28005KT 11/00 A2994 RMK A01 T011400-0  RH  045%=      5-min Rain = 0
KDC1 220822Z 26004KT 11/00 A2994 RMK A01 T01070001  RH  048%=      5-min Rain = 0
KDC1 220823Z 26004KT 10/M00 A2994 RMK A01 T01031003  RH  048%=      5-min Rain = 0
KDC1 220824Z 25004KT 11/M01 A2994 RMK A01 T01051007  RH  046%=      5-min Rain = 0
KDC1 220825Z 23004KT 11/M01 A2994 RMK A01 T01081009  RH  044%=      5-min Rain = 0
KDC1 220826Z 24004KT 11/M02 A2994 RMK A01 T01141019  RH  039%=      5-min Rain = 0
KDC1 220827Z 23004KT 12/M03 A2993 RMK A01 T01211026  RH  036%=      5-min Rain = 0
KDC1 220828Z 24004KT 13/M03 A2993 RMK A01 T01271031  RH  033%=      5-min Rain = 0
KDC1 220829Z 23004KT 13/M03 A2993 RMK A01 T01311032  RH  032%=      5-min Rain = 0
KDC1 220830Z 22005KT 13/M03 A2993 RMK A01 T01331034  RH  031%=      5-min Rain = 0
KDC1 220831Z 21005KT 14/M04 A2993 RMK A01 T01351041  RH  029%=      5-min Rain = 0
KDC1 220832Z 21004KT 14/M05 A2993 RMK A01 T01391049  RH  027%=      5-min Rain = 0
KDC1 220833Z 23005KT 14/M05 A2993 RMK A01 T01421050  RH  026%=      5-min Rain = 0
KDC1 220834Z 22005KT 14/M04 A2993 RMK A01 T01441044  RH  027%=      5-min Rain = 0
KDC1 220835Z 22005KT 15/M05 A2993 RMK A01 T01451047  RH  026%=      5-min Rain = 0
KDC1 220836Z 21005KT 15/M05 A2993 RMK A01 T01451050  RH  026%=      5-min Rain = 0
KDC1 220837Z 22005KT 15/M05 A2993 RMK A01 T01471054  RH  025%=      5-min Rain = 0
KDC1 220838Z 23005KT 15/M06 A2993 RMK A01 T01491056  RH  024%=      5-min Rain = 0
KDC1 220839Z 23005KT 15/M05 A2993 RMK A01 T01511050  RH  025%=      5-min Rain = 0
KDC1 220840Z 23005KT 15/M05 A2993 RMK A01 T01501045  RH  026%=      5-min Rain = 0
KDC1 220841Z 23005KT 15/M04 A2993 RMK A01 T01491043  RH  026%=      5-min Rain = 0
KDC1 220842Z 22006KT 15/M04 A2993 RMK A01 T01471042  RH  027%=      5-min Rain = 0
KDC1 220843Z 23005KT 15/M05 A2993 RMK A01 T01461046  RH  026%=      5-min Rain = 0
KDC1 220844Z 23006KT 15/M04 A2993 RMK A01 T01461040  RH  027%=      5-min Rain = 0
KDC1 220845Z 23006KT 15/M04 A2993 RMK A01 T01451042  RH  027%=      5-min Rain = 0
KDC1 220846Z 23006KT 15/M05 A2993 RMK A01 T01461048  RH  026%=      5-min Rain = 0
KDC1 220847Z 24005KT 15/M05 A2993 RMK A01 T01471045  RH  026%=      5-min Rain = 0
KDC1 220848Z 23005KT 15/M04 A2993 RMK A01 T01471041  RH  027%=      5-min Rain = 0
KDC1 220849Z 24005KT 15/M04 A2993 RMK A01 T01461040  RH  028%=      5-min Rain = 0
KDC1 220850Z 25004KT 14/M03 A2993 RMK A01 T01441030  RH  030%=      5-min Rain = 0
KDC1 220851Z 25005KT 14/M02 A2993 RMK A01 T01391020  RH  033%=      5-min Rain = 0
KDC1 220852Z 25004KT 14/M01 A2993 RMK A01 T01361011  RH  036%=      5-min Rain = 0
KDC1 220853Z 25004KT 13/M00 A2993 RMK A01 T01291002  RH  041%=      5-min Rain = 0
KDC1 220854Z 25005KT 12/M01 A2993 RMK A01 T01221008  RH  041%=      5-min Rain = 0
KDC1 220855Z 25005KT 12/M01 A2993 RMK A01 T01181009  RH  041%=      5-min Rain = 0
KDC1 220856Z 26005KT 12/M01 A2993 RMK A01 T01161011  RH  041%=      5-min Rain = 0
KDC1 220857Z 28004KT 12/M02 A2993 RMK A01 T01151019  RH  039%=      5-min Rain = 0
KDC1 220858Z 29004KT 11/M02 A2993 RMK A01 T01111020  RH  040%=      5-min Rain = 0
KDC1 220859Z 29004KT 11/M01 A2994 RMK A01 T01061006  RH  046%=      5-min Rain = 0
KDC1 220900Z 29005KT 10/M00 A2994 RMK A01 T01011002  RH  049%=      5-min Rain = 0
KDC1 220901Z 31005KT 10/00 A2994 RMK A01 T00990001  RH  050%=      5-min Rain = 0
KDC1 220902Z 30006KT 10/00 A2994 RMK A01 T009800-0  RH  051%=      5-min Rain = 0
KDC1 220903Z 29007KT 10/M00 A2993 RMK A01 T00971004  RH  049%=      5-min Rain = 0
KDC1 220904Z 30008KT 10/M01 A2993 RMK A01 T00971011  RH  047%=      5-min Rain = 0
KDC1 220905Z 29007KT 10/M01 A2993 RMK A01 T00991014  RH  045%=      5-min Rain = 0
KDC1 220906Z 30008KT 10/M02 A2993 RMK A01 T01001015  RH  045%=      5-min Rain = 0
KDC1 220907Z 30009KT 10/M02 A2993 RMK A01 T01001015  RH  044%=      5-min Rain = 0
KDC1 220908Z 30010KT 10/M02 A2993 RMK A01 T01001017  RH  044%=      5-min Rain = 0
KDC1 220909Z 30009KT 10/M03 A2993 RMK A01 T00991032  RH  040%=      5-min Rain = 0
KDC1 220910Z 30008KT 10/M04 A2993 RMK A01 T01031044  RH  035%=      5-min Rain = 0
KDC1 220911Z 29007KT 11/M05 A2993 RMK A01 T01071050  RH  033%=      5-min Rain = 0
KDC1 220912Z 29007KT 11/M05 A2993 RMK A01 T01091052  RH  032%=      5-min Rain = 0
KDC1 220913Z 28007KT 11/M05 A2993 RMK A01 T01091052  RH  032%=      5-min Rain = 0
KDC1 220914Z 27007KT 11/M05 A2993 RMK A01 T01111054  RH  031%=      5-min Rain = 0
KDC1 220915Z 27006KT 12/M06 A2993 RMK A01 T01151057  RH  030%=      5-min Rain = 0
KDC1 220916Z 28006KT 12/M06 A2993 RMK A01 T01191056  RH  029%=      5-min Rain = 0
KDC1 220917Z 28006KT 12/M05 A2993 RMK A01 T01201049  RH  030%=      5-min Rain = 0
KDC1 220918Z 30007KT 12/M04 A2994 RMK A01 T01161037  RH  034%=      5-min Rain = 0
KDC1 220919Z 29006KT 11/M03 A2994 RMK A01 T01081031  RH  038%=      5-min Rain = 0
KDC1 220920Z 29006KT 10/M03 A2993 RMK A01 T01031028  RH  040%=      5-min Rain = 0
KDC1 220921Z 30007KT 10/M03 A2993 RMK A01 T01011030  RH  040%=      5-min Rain = 0
KDC1 220922Z 31007KT 10/M03 A2994 RMK A01 T00991025  RH  042%=      5-min Rain = 0
KDC1 220923Z 31010KT 10/M02 A2994 RMK A01 T00951021  RH  044%=      5-min Rain = 0
KDC1 220924Z 31008KT 09/M04 A2994 RMK A01 T00921037  RH  040%=      5-min Rain = 0
KDC1 220925Z 30008KT 10/M05 A2994 RMK A01 T00971054  RH  034%=      5-min Rain = 0
KDC1 220926Z 30008KT 11/M06 A2994 RMK A01 T01051063  RH  030%=      5-min Rain = 0
KDC1 220927Z 30008KT 11/M07 A2994 RMK A01 T01091065  RH  029%=      5-min Rain = 0
KDC1 220928Z 29008KT 11/M06 A2994 RMK A01 T01101057  RH  030%=      5-min Rain = 0
KDC1 220929Z 28007KT 11/M05 A2993 RMK A01 T01061049  RH  033%=      5-min Rain = 0
KDC1 220930Z 28008KT 10/M05 A2993 RMK A01 T01031049  RH  034%=      5-min Rain = 0
KDC1 220931Z 28008KT 10/M05 A2993 RMK A01 T01021049  RH  034%=      5-min Rain = 0
KDC1 220932Z 27008KT 10/M04 A2993 RMK A01 T01021044  RH  035%=      5-min Rain = 0
KDC1 220933Z 27008KT 10/M05 A2993 RMK A01 T01021047  RH  035%=      5-min Rain = 0
KDC1 220934Z 28009KT 10/M05 A2993 RMK A01 T01031051  RH  033%=      5-min Rain = 0
KDC1 220935Z 27009KT 11/M06 A2993 RMK A01 T01051055  RH  032%=      5-min Rain = 0
KDC1 220936Z 27009KT 11/M07 A2993 RMK A01 T01081065  RH  029%=      5-min Rain = 0
KDC1 220937Z 26009KT 11/M08 A2993 RMK A01 T01141076  RH  026%=      5-min Rain = 0
KDC1 220938Z 26008KT 12/M09 A2993 RMK A01 T01221086  RH  023%=      5-min Rain = 0
KDC1 220939Z 26007KT 13/M09 A2993 RMK A01 T01281091  RH  021%=      5-min Rain = 0
KDC1 220940Z 26007KT 13/M09 A2993 RMK A01 T01321092  RH  020%=      5-min Rain = 0
KDC1 220941Z 27008KT 13/M09 A2993 RMK A01 T01341091  RH  020%=      5-min Rain = 0
KDC1 220942Z 27007KT 13/M09 A2993 RMK A01 T01341086  RH  021%=      5-min Rain = 0
KDC1 220943Z 27006KT 13/M08 A2993 RMK A01 T01331081  RH  022%=      5-min Rain = 0
KDC1 220944Z 27006KT 13/M08 A2993 RMK A01 T01311079  RH  022%=      5-min Rain = 0
KDC1 220945Z 28006KT 13/M07 A2994 RMK A01 T01291073  RH  024%=      5-min Rain = 0
KDC1 220946Z 28005KT 13/M06 A2994 RMK A01 T01251061  RH  027%=      5-min Rain = 0
KDC1 220947Z 29004KT 12/M06 A2994 RMK A01 T01181055  RH  029%=      5-min Rain = 0
KDC1 220948Z 29004KT 11/M04 A2994 RMK A01 T01111044  RH  033%=      5-min Rain = 0
KDC1 220949Z 30005KT 11/M04 A2994 RMK A01 T01051042  RH  035%=      5-min Rain = 0
KDC1 220950Z 31004KT 10/M04 A2994 RMK A01 T01031044  RH  035%=      5-min Rain = 0
KDC1 220951Z 31004KT 10/M04 A2994 RMK A01 T01031044  RH  035%=      5-min Rain = 0
KDC1 220952Z 30004KT 10/M05 A2994 RMK A01 T01021045  RH  035%=      5-min Rain = 0
KDC1 220953Z 30003KT 10/M05 A2994 RMK A01 T01021045  RH  035%=      5-min Rain = 0
KDC1 220954Z 28003KT 10/M05 A2994 RMK A01 T01021049  RH  034%=      5-min Rain = 0
KDC1 220955Z 27004KT 10/M05 A2994 RMK A01 T01021054  RH  033%=      5-min Rain = 0
KDC1 220956Z 26003KT 10/M05 A2994 RMK A01 T01031052  RH  033%=      5-min Rain = 0
KDC1 220957Z 27003KT 10/M05 A2994 RMK A01 T01021051  RH  034%=      5-min Rain = 0
KDC1 220958Z 27004KT 10/M06 A2994 RMK A01 T01031056  RH  032%=      5-min Rain = 0
KDC1 220959Z 26004KT 11/M06 A2994 RMK A01 T01051055  RH  032%=      5-min Rain = 0
KDC1 221000Z 25004KT 11/M06 A2994 RMK A01 T01081059  RH  031%=      5-min Rain = 0
KDC1 221001Z 24003KT 11/M06 A2994 RMK A01 T01091056  RH  031%=      5-min Rain = 0
KDC1 221002Z 24003KT 11/M06 A2994 RMK A01 T01091056  RH  031%=      5-min Rain = 0
KDC1 221003Z 24003KT 11/M06 A2994 RMK A01 T01081056  RH  031%=      5-min Rain = 0
KDC1 221004Z 23004KT 11/M06 A2994 RMK A01 T01081058  RH  031%=      5-min Rain = 0
KDC1 221005Z 23004KT 11/M06 A2994 RMK A01 T01081057  RH  031%=      5-min Rain = 0
KDC1 221006Z 24004KT 11/M06 A2994 RMK A01 T01091060  RH  030%=      5-min Rain = 0
KDC1 221007Z 25003KT 11/M06 A2994 RMK A01 T01101060  RH  030%=      5-min Rain = 0
KDC1 221008Z 00002KT 11/M05 A2994 RMK A01 T01081048  RH  033%=      5-min Rain = 0
KDC1 221009Z 35003KT 10/M04 A2994 RMK A01 T01001035  RH  039%=      5-min Rain = 0
KDC1 221010Z 30003KT 09/M03 A2994 RMK A01 T00941032  RH  041%=      5-min Rain = 0
KDC1 221011Z 30004KT 09/M04 A2994 RMK A01 T00921035  RH  041%=      5-min Rain = 0
KDC1 221012Z 31004KT 09/M04 A2994 RMK A01 T00911035  RH  041%=      5-min Rain = 0
KDC1 221013Z 32005KT 09/M03 A2994 RMK A01 T00911031  RH  042%=      5-min Rain = 0
KDC1 221014Z 33005KT 09/M03 A2994 RMK A01 T00901032  RH  042%=      5-min Rain = 0
KDC1 221015Z 34005KT 09/M03 A2994 RMK A01 T00891033  RH  042%=      5-min Rain = 0
KDC1 221016Z 34004KT 09/M04 A2994 RMK A01 T00881035  RH  042%=      5-min Rain = 0
KDC1 221017Z 34004KT 09/M03 A2994 RMK A01 T00871034  RH  042%=      5-min Rain = 0
KDC1 221018Z 34004KT 09/M03 A2994 RMK A01 T00871034  RH  043%=      5-min Rain = 0
KDC1 221019Z 35004KT 09/M04 A2994 RMK A01 T00861035  RH  042%=      5-min Rain = 0
KDC1 221020Z 36003KT 09/M04 A2994 RMK A01 T00871038  RH  041%=      5-min Rain = 0
KDC1 221021Z 34003KT 09/M04 A2994 RMK A01 T00871038  RH  041%=      5-min Rain = 0
KDC1 221022Z 34003KT 09/M04 A2994 RMK A01 T00881037  RH  041%=      5-min Rain = 0
KDC1 221023Z 33003KT 09/M04 A2994 RMK A01 T00881035  RH  042%=      5-min Rain = 0
KDC1 221024Z 31003KT 09/M03 A2994 RMK A01 T00871034  RH  042%=      5-min Rain = 0
KDC1 221025Z 32004KT 09/M04 A2994 RMK A01 T00871036  RH  042%=      5-min Rain = 0
KDC1 221026Z 33003KT 09/M04 A2994 RMK A01 T00871038  RH  041%=      5-min Rain = 0
KDC1 221027Z 34002KT 09/M04 A2994 RMK A01 T00861044  RH  039%=      5-min Rain = 0
KDC1 221028Z 36002KT 09/M05 A2994 RMK A01 T00881049  RH  037%=      5-min Rain = 0
KDC1 221029Z 01003KT 09/M05 A2994 RMK A01 T00891051  RH  037%=      5-min Rain = 0
KDC1 221030Z 36002KT 09/M05 A2994 RMK A01 T00901049  RH  037%=      5-min Rain = 0
KDC1 221031Z 34002KT 09/M05 A2994 RMK A01 T00911048  RH  037%=      5-min Rain = 0
KDC1 221032Z 33003KT 09/M05 A2994 RMK A01 T00931048  RH  037%=      5-min Rain = 0
KDC1 221033Z 33003KT 09/M05 A2994 RMK A01 T00931045  RH  037%=      5-min Rain = 0
KDC1 221034Z 33003KT 09/M04 A2994 RMK A01 T00941041  RH  038%=      5-min Rain = 0
KDC1 221035Z 33002KT 09/M04 A2994 RMK A01 T00941036  RH  040%=      5-min Rain = 0
KDC1 221036Z 33002KT 09/M03 A2994 RMK A01 T00921033  RH  041%=      5-min Rain = 0
KDC1 221037Z 33002KT 09/M03 A2994 RMK A01 T00881027  RH  044%=      5-min Rain = 0
KDC1 221038Z 33002KT 09/M02 A2994 RMK A01 T00851022  RH  047%=      5-min Rain = 0
KDC1 221039Z 33002KT 08/M03 A2994 RMK A01 T00821027  RH  046%=      5-min Rain = 0
KDC1 221040Z 32003KT 08/M03 A2994 RMK A01 T00821029  RH  045%=      5-min Rain = 0
KDC1 221041Z 31003KT 08/M02 A2994 RMK A01 T00821024  RH  047%=      5-min Rain = 0
KDC1 221042Z 31003KT 08/M02 A2994 RMK A01 T00801021  RH  049%=      5-min Rain = 0
KDC1 221043Z 30004KT 08/M02 A2994 RMK A01 T00771023  RH  049%=      5-min Rain = 0
KDC1 221044Z 30004KT 08/M03 A2994 RMK A01 T00761029  RH  047%=      5-min Rain = 0
KDC1 221045Z 30004KT 08/M04 A2994 RMK A01 T00761035  RH  045%=      5-min Rain = 0
KDC1 221046Z 31004KT 08/M04 A2994 RMK A01 T00771040  RH  043%=      5-min Rain = 0
KDC1 221047Z 31004KT 08/M04 A2995 RMK A01 T00791043  RH  042%=      5-min Rain = 0
KDC1 221048Z 31004KT 08/M04 A2995 RMK A01 T00811044  RH  041%=      5-min Rain = 0
KDC1 221049Z 30004KT 08/M05 A2995 RMK A01 T00831049  RH  039%=      5-min Rain = 0
KDC1 221050Z 31004KT 09/M05 A2995 RMK A01 T00861054  RH  037%=      5-min Rain = 0
KDC1 221051Z 32004KT 09/M06 A2995 RMK A01 T00891056  RH  035%=      5-min Rain = 0
KDC1 221052Z 33003KT 09/M06 A2995 RMK A01 T00911056  RH  035%=      5-min Rain = 0
KDC1 221053Z 34003KT 09/M06 A2995 RMK A01 T00931057  RH  034%=      5-min Rain = 0
KDC1 221054Z 34003KT 09/M06 A2995 RMK A01 T00931055  RH  035%=      5-min Rain = 0
KDC1 221055Z 35003KT 09/M05 A2995 RMK A01 T00931050  RH  036%=      5-min Rain = 0
KDC1 221056Z 01004KT 09/M05 A2995 RMK A01 T00921047  RH  037%=      5-min Rain = 0
KDC1 221057Z 04004KT 09/M05 A2995 RMK A01 T00911047  RH  038%=      5-min Rain = 0
KDC1 221058Z 36003KT 09/M04 A2995 RMK A01 T00901043  RH  039%=      5-min Rain = 0
KDC1 221059Z 35004KT 09/M04 A2995 RMK A01 T00881041  RH  040%=      5-min Rain = 0
KDC1 221100Z 35004KT 09/M04 A2995 RMK A01 T00851041  RH  041%=      5-min Rain = 0
KDC1 221101Z 36004KT 08/M04 A2995 RMK A01 T00831039  RH  042%=      5-min Rain = 0
KDC1 221102Z 00004KT 08/M04 A2995 RMK A01 T00811036  RH  043%=      5-min Rain = 0
KDC1 221103Z 01005KT 08/M04 A2995 RMK A01 T00791036  RH  044%=      5-min Rain = 0
KDC1 221104Z 00005KT 08/M04 A2995 RMK A01 T00771037  RH  044%=      5-min Rain = 0
KDC1 221105Z 00004KT 08/M04 A2995 RMK A01 T00761037  RH  045%=      5-min Rain = 0
KDC1 221106Z 36004KT 08/M04 A2995 RMK A01 T00751037  RH  045%=      5-min Rain = 0
KDC1 221107Z 01005KT 07/M04 A2995 RMK A01 T00741038  RH  045%=      5-min Rain = 0
KDC1 221108Z 01005KT 07/M04 A2995 RMK A01 T00741039  RH  044%=      5-min Rain = 0
KDC1 221109Z 01005KT 08/M04 A2995 RMK A01 T00751041  RH  044%=      5-min Rain = 0
KDC1 221110Z 36005KT 08/M04 A2995 RMK A01 T00761039  RH  044%=      5-min Rain = 0
KDC1 221111Z 33003KT 07/M03 A2995 RMK A01 T00741031  RH  047%=      5-min Rain = 0
KDC1 221112Z 01004KT 07/M03 A2995 RMK A01 T00711031  RH  048%=      5-min Rain = 0
KDC1 221113Z 35004KT 07/M03 A2995 RMK A01 T00711032  RH  048%=      5-min Rain = 0
KDC1 221114Z 32004KT 07/M03 A2995 RMK A01 T00701027  RH  050%=      5-min Rain = 0
KDC1 221115Z 33003KT 07/M02 A2995 RMK A01 T00661023  RH  053%=      5-min Rain = 0
KDC1 221116Z 34003KT 06/M02 A2995 RMK A01 T00631023  RH  054%=      5-min Rain = 0
KDC1 221117Z 35004KT 06/M03 A2995 RMK A01 T00631025  RH  054%=      5-min Rain = 0
KDC1 221118Z 34004KT 06/M03 A2995 RMK A01 T00641025  RH  053%=      5-min Rain = 0
KDC1 221119Z 34004KT 07/M03 A2995 RMK A01 T00651026  RH  052%=      5-min Rain = 0
KDC1 221120Z 33004KT 07/M03 A2995 RMK A01 T00651027  RH  052%=      5-min Rain = 0
KDC1 221121Z 34003KT 07/M03 A2995 RMK A01 T00651028  RH  051%=      5-min Rain = 0
KDC1 221122Z 33004KT 07/M03 A2995 RMK A01 T00661030  RH  050%=      5-min Rain = 0
KDC1 221123Z 32005KT 07/M03 A2995 RMK A01 T00671032  RH  049%=      5-min Rain = 0
KDC1 221124Z 32005KT 07/M03 A2995 RMK A01 T00681034  RH  048%=      5-min Rain = 0
KDC1 221125Z 33004KT 07/M04 A2995 RMK A01 T00701036  RH  047%=      5-min Rain = 0
KDC1 221126Z 33004KT 07/M04 A2995 RMK A01 T00731040  RH  045%=      5-min Rain = 0
KDC1 221127Z 33004KT 08/M04 A2995 RMK A01 T00751040  RH  044%=      5-min Rain = 0
KDC1 221128Z 31004KT 08/M04 A2995 RMK A01 T00781042  RH  042%=      5-min Rain = 0
KDC1 221129Z 31005KT 08/M04 A2995 RMK A01 T00791042  RH  042%=      5-min Rain = 0
KDC1 221130Z 31005KT 08/M04 A2995 RMK A01 T00791042  RH  042%=      5-min Rain = 0
KDC1 221131Z 31005KT 08/M04 A2995 RMK A01 T00801039  RH  043%=      5-min Rain = 0
KDC1 221132Z 31005KT 08/M05 A2995 RMK A01 T00821046  RH  040%=      5-min Rain = 0
KDC1 221133Z 31005KT 09/M05 A2995 RMK A01 T00851046  RH  039%=      5-min Rain = 0
KDC1 221134Z 31005KT 09/M04 A2995 RMK A01 T00871042  RH  040%=      5-min Rain = 0
KDC1 221135Z 31005KT 09/M04 A2995 RMK A01 T00881042  RH  040%=      5-min Rain = 0
KDC1 221136Z 31005KT 09/M04 A2995 RMK A01 T00881036  RH  041%=      5-min Rain = 0
KDC1 221137Z 31006KT 09/M04 A2995 RMK A01 T00871036  RH  042%=      5-min Rain = 0
KDC1 221138Z 31006KT 09/M04 A2995 RMK A01 T00851039  RH  041%=      5-min Rain = 0
KDC1 221139Z 31007KT 08/M04 A2995 RMK A01 T00831041  RH  041%=      5-min Rain = 0
KDC1 221140Z 31007KT 08/M04 A2995 RMK A01 T00811042  RH  041%=      5-min Rain = 0
KDC1 221141Z 32007KT 08/M04 A2995 RMK A01 T00791043  RH  042%=      5-min Rain = 0
KDC1 221142Z 32008KT 08/M04 A2995 RMK A01 T00771042  RH  043%=      5-min Rain = 0
KDC1 221143Z 33008KT 08/M04 A2995 RMK A01 T00761041  RH  043%=      5-min Rain = 0
KDC1 221144Z 33008KT 08/M04 A2995 RMK A01 T00751042  RH  043%=      5-min Rain = 0
KDC1 221145Z 32007KT 08/M04 A2995 RMK A01 T00751042  RH  043%=      5-min Rain = 0
KDC1 221146Z 32007KT 08/M04 A2995 RMK A01 T00751042  RH  043%=      5-min Rain = 0
KDC1 221147Z 30006KT 08/M04 A2995 RMK A01 T00751040  RH  044%=      5-min Rain = 0
KDC1 221148Z 29007KT 07/M04 A2995 RMK A01 T00711037  RH  046%=      5-min Rain = 0
KDC1 221149Z 29007KT 07/M03 A2995 RMK A01 T00671034  RH  048%=      5-min Rain = 0
KDC1 221150Z 29007KT 07/M03 A2995 RMK A01 T00651032  RH  050%=      5-min Rain = 0
KDC1 221151Z 30006KT 07/M03 A2995 RMK A01 T00651033  RH  050%=      5-min Rain = 0
KDC1 221152Z 30006KT 07/M04 A2995 RMK A01 T00661036  RH  048%=      5-min Rain = 0
KDC1 221153Z 30007KT 07/M04 A2995 RMK A01 T00681039  RH  046%=      5-min Rain = 0
KDC1 221154Z 29007KT 07/M04 A2996 RMK A01 T00711041  RH  045%=      5-min Rain = 0
KDC1 221155Z 30007KT 07/M04 A2996 RMK A01 T00731043  RH  043%=      5-min Rain = 0
KDC1 221156Z 30007KT 08/M05 A2996 RMK A01 T00751046  RH  042%=      5-min Rain = 0
KDC1 221157Z 30007KT 08/M05 A2996 RMK A01 T00771049  RH  040%=      5-min Rain = 0
KDC1 221158Z 31007KT 08/M05 A2996 RMK A01 T00801050  RH  039%=      5-min Rain = 0
KDC1 221159Z 29006KT 08/M05 A2996 RMK A01 T00821051  RH  039%=      5-min Rain = 0
KDC1 221200Z 28006KT 08/M05 A2996 RMK A01 T00831051  RH  038%=      5-min Rain = 0
KDC1 221201Z 28006KT 09/M05 A2996 RMK A01 T00861051  RH  038%=      5-min Rain = 0
KDC1 221202Z 28006KT 09/M05 A2996 RMK A01 T00861050  RH  038%=      5-min Rain = 0
KDC1 221203Z 27007KT 09/M05 A2996 RMK A01 T00871050  RH  037%=      5-min Rain = 0
KDC1 221204Z 27007KT 09/M05 A2996 RMK A01 T00891045  RH  038%=      5-min Rain = 0
KDC1 221205Z 27006KT 09/M04 A2996 RMK A01 T00891044  RH  039%=      5-min Rain = 0
KDC1 221206Z 26006KT 09/M04 A2996 RMK A01 T00901043  RH  039%=      5-min Rain = 0
KDC1 221207Z 27006KT 09/M04 A2996 RMK A01 T00901038  RH  040%=      5-min Rain = 0
KDC1 221208Z 27006KT 09/M04 A2996 RMK A01 T00891036  RH  041%=      5-min Rain = 0
KDC1 221209Z 27007KT 09/M04 A2996 RMK A01 T00881037  RH  041%=      5-min Rain = 0
KDC1 221210Z 27007KT 09/M04 A2996 RMK A01 T00861037  RH  042%=      5-min Rain = 0
KDC1 221211Z 27007KT 08/M04 A2996 RMK A01 T00841037  RH  042%=      5-min Rain = 0
KDC1 221212Z 27008KT 08/M04 A2996 RMK A01 T00831039  RH  042%=      5-min Rain = 0
KDC1 221213Z 27009KT 08/M04 A2996 RMK A01 T00831043  RH  041%=      5-min Rain = 0
KDC1 221214Z 27009KT 08/M05 A2996 RMK A01 T00841047  RH  039%=      5-min Rain = 0
KDC1 221215Z 27009KT 08/M05 A2996 RMK A01 T00841049  RH  038%=      5-min Rain = 0
KDC1 221216Z 27009KT 08/M05 A2996 RMK A01 T00831047  RH  039%=      5-min Rain = 0
KDC1 221217Z 27008KT 08/M05 A2996 RMK A01 T00831046  RH  040%=      5-min Rain = 0
KDC1 221218Z 27008KT 08/M05 A2996 RMK A01 T00821045  RH  040%=      5-min Rain = 0
KDC1 221219Z 27008KT 08/M04 A2996 RMK A01 T00821044  RH  041%=      5-min Rain = 0
KDC1 221220Z 27008KT 08/M05 A2996 RMK A01 T00821045  RH  040%=      5-min Rain = 0
KDC1 221221Z 27007KT 08/M05 A2996 RMK A01 T00831048  RH  039%=      5-min Rain = 0
KDC1 221222Z 27007KT 09/M05 A2996 RMK A01 T00851052  RH  037%=      5-min Rain = 0
KDC1 221223Z 27006KT 09/M05 A2997 RMK A01 T00871054  RH  036%=      5-min Rain = 0
KDC1 221224Z 27004KT 09/M05 A2997 RMK A01 T00891054  RH  036%=      5-min Rain = 0
KDC1 221225Z 25001KT 09/M05 A2997 RMK A01 T00891054  RH  036%=      5-min Rain = 0
KDC1 221226Z 25001KT 09/M05 A2997 RMK A01 T00911053  RH  036%=      5-min Rain = 0
KDC1 221227Z 27003KT 09/M06 A2997 RMK A01 T00931056  RH  035%=      5-min Rain = 0
KDC1 221228Z 29003KT 09/M06 A2997 RMK A01 T00941055  RH  035%=      5-min Rain = 0
KDC1 221229Z 29003KT 09/M05 A2997 RMK A01 T00941049  RH  036%=      5-min Rain = 0
KDC1 221230Z 30004KT 09/M05 A2997 RMK A01 T00941046  RH  037%=      5-min Rain = 0
KDC1 221231Z 30005KT 09/M05 A2997 RMK A01 T00931046  RH  037%=      5-min Rain = 0
KDC1 221232Z 30005KT 09/M04 A2997 RMK A01 T00931044  RH  038%=      5-min Rain = 0
KDC1 221233Z 30005KT 09/M04 A2996 RMK A01 T00921041  RH  039%=      5-min Rain = 0
KDC1 221234Z 29005KT 09/M04 A2997 RMK A01 T00911039  RH  040%=      5-min Rain = 0
KDC1 221235Z 29006KT 09/M04 A2997 RMK A01 T00901036  RH  041%=      5-min Rain = 0
KDC1 221236Z 29006KT 09/M03 A2997 RMK A01 T00891033  RH  042%=      5-min Rain = 0
KDC1 221237Z 29006KT 09/M03 A2997 RMK A01 T00881033  RH  043%=      5-min Rain = 0
KDC1 221238Z 29005KT 09/M03 A2997 RMK A01 T00871031  RH  043%=      5-min Rain = 0
KDC1 221239Z 29004KT 09/M03 A2997 RMK A01 T00871033  RH  043%=      5-min Rain = 0
KDC1 221240Z 28005KT 09/M03 A2997 RMK A01 T00881034  RH  042%=      5-min Rain = 0
KDC1 221241Z 28005KT 09/M04 A2997 RMK A01 T00891036  RH  041%=      5-min Rain = 0
KDC1 221242Z 28005KT 09/M04 A2997 RMK A01 T00911037  RH  040%=      5-min Rain = 0
KDC1 221243Z 29005KT 09/M04 A2997 RMK A01 T00931037  RH  040%=      5-min Rain = 0
KDC1 221244Z 28004KT 10/M04 A2997 RMK A01 T00951038  RH  039%=      5-min Rain = 0
KDC1 221245Z 28005KT 10/M04 A2997 RMK A01 T00971038  RH  038%=      5-min Rain = 0
KDC1 221246Z 28006KT 10/M04 A2997 RMK A01 T00981038  RH  038%=      5-min Rain = 0
KDC1 221247Z 27005KT 10/M04 A2997 RMK A01 T01001037  RH  038%=      5-min Rain = 0
KDC1 221248Z 28005KT 10/M04 A2997 RMK A01 T01011039  RH  037%=      5-min Rain = 0
KDC1 221249Z 28005KT 10/M04 A2997 RMK A01 T01031039  RH  037%=      5-min Rain = 0
KDC1 221250Z 28006KT 10/M04 A2997 RMK A01 T01041040  RH  036%=      5-min Rain = 0
KDC1 221251Z 28006KT 11/M04 A2997 RMK A01 T01061040  RH  036%=      5-min Rain = 0
KDC1 221252Z 28006KT 11/M04 A2997 RMK A01 T01071038  RH  036%=      5-min Rain = 0
KDC1 221253Z 28007KT 11/M04 A2997 RMK A01 T01081035  RH  037%=      5-min Rain = 0
KDC1 221254Z 28007KT 11/M03 A2997 RMK A01 T01081031  RH  037%=      5-min Rain = 0
KDC1 221255Z 28008KT 11/M03 A2997 RMK A01 T01081028  RH  038%=      5-min Rain = 0
KDC1 221256Z 28008KT 11/M03 A2997 RMK A01 T01091027  RH  039%=      5-min Rain = 0
KDC1 221257Z 28007KT 11/M03 A2997 RMK A01 T01091029  RH  038%=      5-min Rain = 0
KDC1 221258Z 28007KT 11/M03 A2997 RMK A01 T01101032  RH  037%=      5-min Rain = 0
KDC1 221259Z 29008KT 11/M03 A2997 RMK A01 T01111030  RH  037%=      5-min Rain = 0
KDC1 221300Z 29008KT 11/M03 A2997 RMK A01 T01121026  RH  038%=      5-min Rain = 0
KDC1 221301Z 29008KT 11/M03 A2997 RMK A01 T01121027  RH  038%=      5-min Rain = 0
KDC1 221302Z 29007KT 11/M03 A2998 RMK A01 T01131029  RH  037%=      5-min Rain = 0
KDC1 221303Z 29007KT 11/M03 A2998 RMK A01 T01141031  RH  036%=      5-min Rain = 0
KDC1 221304Z 29007KT 12/M03 A2998 RMK A01 T01151031  RH  036%=      5-min Rain = 0
KDC1 221305Z 29007KT 12/M03 A2998 RMK A01 T01171031  RH  035%=      5-min Rain = 0
KDC1 221306Z 29007KT 12/M03 A2998 RMK A01 T01181033  RH  035%=      5-min Rain = 0
KDC1 221307Z 29007KT 12/M03 A2998 RMK A01 T01191033  RH  034%=      5-min Rain = 0
KDC1 221308Z 29007KT 12/M03 A2998 RMK A01 T01201033  RH  034%=      5-min Rain = 0
KDC1 221309Z 30007KT 12/M03 A2998 RMK A01 T01201032  RH  034%=      5-min Rain = 0
KDC1 221310Z 30006KT 12/M03 A2998 RMK A01 T01221033  RH  034%=      5-min Rain = 0
KDC1 221311Z 30006KT 12/M04 A2998 RMK A01 T01221038  RH  032%=      5-min Rain = 0
KDC1 221312Z 30006KT 12/M04 A2998 RMK A01 T01241042  RH  031%=      5-min Rain = 0
KDC1 221313Z 30006KT 13/M04 A2998 RMK A01 T01251041  RH  031%=      5-min Rain = 0
KDC1 221314Z 30005KT 13/M04 A2998 RMK A01 T01261040  RH  031%=      5-min Rain = 0
KDC1 221315Z 29006KT 13/M04 A2998 RMK A01 T01271037  RH  032%=      5-min Rain = 0
KDC1 221316Z 29006KT 13/M04 A2998 RMK A01 T01271037  RH  031%=      5-min Rain = 0
KDC1 221317Z 29006KT 13/M04 A2998 RMK A01 T01281037  RH  031%=      5-min Rain = 0
KDC1 221318Z 29006KT 13/M04 A2998 RMK A01 T01291037  RH  031%=      5-min Rain = 0
KDC1 221319Z 29006KT 13/M03 A2998 RMK A01 T01301034  RH  032%=      5-min Rain = 0
KDC1 221320Z 28005KT 13/M03 A2998 RMK A01 T01311029  RH  033%=      5-min Rain = 0
KDC1 221321Z 29004KT 13/M03 A2998 RMK A01 T01321029  RH  033%=      5-min Rain = 0
KDC1 221322Z 29004KT 13/M03 A2998 RMK A01 T01341029  RH  032%=      5-min Rain = 0
KDC1 221323Z 29004KT 14/M03 A2998 RMK A01 T01361031  RH  031%=      5-min Rain = 0
KDC1 221324Z 28005KT 14/M03 A2999 RMK A01 T01371032  RH  031%=      5-min Rain = 0
KDC1 221325Z 28006KT 14/M04 A2999 RMK A01 T01371036  RH  030%=      5-min Rain = 0
KDC1 221326Z 28006KT 14/M04 A2999 RMK A01 T01381036  RH  030%=      5-min Rain = 0
KDC1 221327Z 27005KT 14/M04 A2999 RMK A01 T01391036  RH  030%=      5-min Rain = 0
KDC1 221328Z 28005KT 14/M04 A2999 RMK A01 T01401035  RH  030%=      5-min Rain = 0
KDC1 221329Z 29005KT 14/M03 A2999 RMK A01 T01411034  RH  029%=      5-min Rain = 0
KDC1 221330Z 30004KT 14/M04 A2999 RMK A01 T01431035  RH  029%=      5-min Rain = 0
KDC1 221331Z 30004KT 14/M03 A2999 RMK A01 T01441033  RH  029%=      5-min Rain = 0
KDC1 221332Z 30003KT 15/M03 A2999 RMK A01 T01451032  RH  029%=      5-min Rain = 0
KDC1 221333Z 30004KT 15/M03 A2999 RMK A01 T01471033  RH  029%=      5-min Rain = 0
KDC1 221334Z 31003KT 15/M04 A2999 RMK A01 T01491038  RH  027%=      5-min Rain = 0
KDC1 221335Z 31003KT 15/M04 A2999 RMK A01 T01501040  RH  027%=      5-min Rain = 0
KDC1 221336Z 31003KT 15/M04 A2999 RMK A01 T01511041  RH  026%=      5-min Rain = 0
KDC1 221337Z 31004KT 15/M04 A2999 RMK A01 T01521042  RH  026%=      5-min Rain = 0
KDC1 221338Z 31004KT 15/M04 A2999 RMK A01 T01531043  RH  026%=      5-min Rain = 0
KDC1 221339Z 31005KT 15/M05 A2999 RMK A01 T01531045  RH  025%=      5-min Rain = 0
KDC1 221340Z 31005KT 15/M04 A2999 RMK A01 T01541039  RH  026%=      5-min Rain = 0
KDC1 221341Z 31006KT 15/M04 A2999 RMK A01 T01541040  RH  026%=      5-min Rain = 0
KDC1 221342Z 32006KT 15/M04 A2999 RMK A01 T01541038  RH  026%=      5-min Rain = 0
KDC1 221343Z 33005KT 16/M04 A2999 RMK A01 T01551035  RH  027%=      5-min Rain = 0
KDC1 221344Z 33005KT 16/M03 A2999 RMK A01 T01551028  RH  028%=      5-min Rain = 0
KDC1 221345Z 33004KT 16/M02 A2999 RMK A01 T01561022  RH  029%=      5-min Rain = 0
KDC1 221346Z 33005KT 16/M02 A2999 RMK A01 T01561023  RH  029%=      5-min Rain = 0
KDC1 221347Z 34004KT 16/M03 A2999 RMK A01 T01561027  RH  028%=      5-min Rain = 0
KDC1 221348Z 34004KT 16/M03 A2999 RMK A01 T01561028  RH  028%=      5-min Rain = 0
KDC1 221349Z 34004KT 16/M03 A2999 RMK A01 T01581030  RH  027%=      5-min Rain = 0
KDC1 221350Z 34005KT 16/M04 A2999 RMK A01 T01581042  RH  025%=      5-min Rain = 0
KDC1 221351Z 34004KT 16/M05 A2999 RMK A01 T01601052  RH  023%=      5-min Rain = 0
KDC1 221352Z 34002KT 16/M05 A2999 RMK A01 T01611049  RH  023%=      5-min Rain = 0
KDC1 221353Z 35002KT 16/M04 A2999 RMK A01 T01641042  RH  024%=      5-min Rain = 0
KDC1 221354Z 35003KT 17/M05 A2999 RMK A01 T01661048  RH  023%=      5-min Rain = 0
KDC1 221355Z 00003KT 17/M06 A2999 RMK A01 T01661057  RH  021%=      5-min Rain = 0
KDC1 221356Z 01003KT 17/M07 A2999 RMK A01 T01661065  RH  020%=      5-min Rain = 0
KDC1 221357Z 01004KT 17/M08 A2999 RMK A01 T01671079  RH  018%=      5-min Rain = 0
KDC1 221358Z 02003KT 17/M08 A2999 RMK A01 T01671077  RH  018%=      5-min Rain = 0
KDC1 221359Z 04002KT 17/M06 A2999 RMK A01 T01681063  RH  020%=      5-min Rain = 0
KDC1 221400Z 05003KT 17/M05 A2999 RMK A01 T01681050  RH  022%=      5-min Rain = 0
KDC1 221401Z 04003KT 17/M05 A2999 RMK A01 T01701045  RH  023%=      5-min Rain = 0
KDC1 221402Z 04003KT 17/M05 A2999 RMK A01 T01701048  RH  022%=      5-min Rain = 0
KDC1 221403Z 02004KT 17/M05 A2999 RMK A01 T01711051  RH  022%=      5-min Rain = 0
KDC1 221404Z 01004KT 17/M05 A2999 RMK A01 T01701045  RH  023%=      5-min Rain = 0
KDC1 221405Z 00004KT 17/M05 A2999 RMK A01 T01701051  RH  022%=      5-min Rain = 0
KDC1 221406Z 00004KT 17/M06 A2999 RMK A01 T01701063  RH  020%=      5-min Rain = 0
KDC1 221407Z 00003KT 17/M06 A2999 RMK A01 T01701062  RH  020%=      5-min Rain = 0
KDC1 221408Z 34003KT 17/M06 A2999 RMK A01 T01711058  RH  020%=      5-min Rain = 0
KDC1 221409Z 00003KT 17/M05 A2999 RMK A01 T01721054  RH  021%=      5-min Rain = 0
KDC1 221410Z 36003KT 18/M04 A2999 RMK A01 T01751043  RH  022%=      5-min Rain = 0
KDC1 221411Z 36003KT 18/M05 A2999 RMK A01 T01761047  RH  021%=      5-min Rain = 0
KDC1 221412Z 36003KT 18/M06 A2999 RMK A01 T01771063  RH  019%=      5-min Rain = 0
KDC1 221413Z 00003KT 18/M06 A2999 RMK A01 T01791062  RH  019%=      5-min Rain = 0
KDC1 221414Z 01004KT 18/M06 A2999 RMK A01 T01811062  RH  019%=      5-min Rain = 0
KDC1 221415Z 00003KT 18/M06 A2999 RMK A01 T01811057  RH  019%=      5-min Rain = 0
KDC1 221416Z 01003KT 18/M06 A2999 RMK A01 T01821056  RH  019%=      5-min Rain = 0
KDC1 221417Z 03003KT 18/M05 A2999 RMK A01 T01831054  RH  019%=      5-min Rain = 0
KDC1 221418Z 04005KT 19/M05 A30 RMK A01 T01851052  RH  020%=      5-min Rain = 0
KDC1 221419Z 04005KT 19/M07 A30 RMK A01 T01861071  RH  017%=      5-min Rain = 0
KDC1 221420Z 04004KT 19/M07 A30 RMK A01 T01861071  RH  017%=      5-min Rain = 0
KDC1 221421Z 03004KT 19/M06 A30 RMK A01 T01861063  RH  018%=      5-min Rain = 0
KDC1 221422Z 02003KT 19/M08 A30 RMK A01 T01881075  RH  016%=      5-min Rain = 0
KDC1 221423Z 02003KT 19/M06 A30 RMK A01 T01891059  RH  018%=      5-min Rain = 0
KDC1 221424Z 01002KT 19/M05 A30 RMK A01 T01901054  RH  019%=      5-min Rain = 0
KDC1 221425Z 01002KT 19/M06 A30 RMK A01 T01931056  RH  018%=      5-min Rain = 0
KDC1 221426Z 01002KT 19/M06 A30 RMK A01 T01931059  RH  018%=      5-min Rain = 0
KDC1 221427Z 01002KT 19/M06 A30 RMK A01 T01941063  RH  017%=      5-min Rain = 0
KDC1 221428Z 03002KT 20/M07 A30 RMK A01 T01951065  RH  017%=      5-min Rain = 0
KDC1 221429Z 04003KT 20/M07 A30 RMK A01 T01951067  RH  016%=      5-min Rain = 0
KDC1 221430Z 09005KT 20/M04 A30 RMK A01 T01961039  RH  020%=      5-min Rain = 0
KDC1 221431Z 10006KT 20/M00 A30 RMK A01 T01951002  RH  027%=      5-min Rain = 0
KDC1 221432Z 10005KT 19/M00 A30 RMK A01 T01901004  RH  027%=      5-min Rain = 0
KDC1 221433Z 09005KT 19/M01 A30 RMK A01 T01881010  RH  026%=      5-min Rain = 0
KDC1 221434Z 10004KT 19/M01 A30 RMK A01 T01881014  RH  025%=      5-min Rain = 0
KDC1 221435Z 09003KT 19/M02 A30 RMK A01 T01881016  RH  025%=      5-min Rain = 0
KDC1 221436Z 09003KT 19/M02 A30 RMK A01 T01891021  RH  024%=      5-min Rain = 0
KDC1 221437Z 12003KT 19/M01 A30 RMK A01 T01901014  RH  025%=      5-min Rain = 0
KDC1 221438Z 12003KT 19/M01 A30 RMK A01 T01901012  RH  025%=      5-min Rain = 0
KDC1 221439Z 11005KT 19/M01 A30 RMK A01 T01891008  RH  026%=      5-min Rain = 0
KDC1 221440Z 11005KT 19/M00 A30 RMK A01 T01881004  RH  027%=      5-min Rain = 0
KDC1 221441Z 11004KT 19/M01 A30 RMK A01 T01881005  RH  027%=      5-min Rain = 0
KDC1 221442Z 12004KT 19/00 A30 RMK A01 T01870001  RH  029%=      5-min Rain = 0
KDC1 221443Z 09003KT 19/M00 A30 RMK A01 T01861001  RH  028%=      5-min Rain = 0
KDC1 221444Z 09004KT 19/M02 A30 RMK A01 T01881016  RH  025%=      5-min Rain = 0
KDC1 221445Z 09004KT 19/M03 A30 RMK A01 T01901033  RH  022%=      5-min Rain = 0
KDC1 221446Z 07004KT 19/M04 A30 RMK A01 T01911037  RH  021%=      5-min Rain = 0
KDC1 221447Z 08005KT 19/M04 A30 RMK A01 T01941037  RH  021%=      5-min Rain = 0
KDC1 221448Z 09004KT 19/M05 A30 RMK A01 T01941047  RH  019%=      5-min Rain = 0
KDC1 221449Z 12005KT 20/M05 A30 RMK A01 T01951049  RH  019%=      5-min Rain = 0
KDC1 221450Z 11005KT 20/M04 A30 RMK A01 T01961041  RH  020%=      5-min Rain = 0
KDC1 221451Z 14005KT 20/M01 A30 RMK A01 T01971008  RH  025%=      5-min Rain = 0
KDC1 221452Z 14005KT 20/01 A30 RMK A01 T01970007  RH  028%=      5-min Rain = 0
KDC1 221453Z 12004KT 20/M00 A30 RMK A01 T01961001  RH  027%=      5-min Rain = 0
KDC1 221454Z 12003KT 20/M01 A30 RMK A01 T01951009  RH  025%=      5-min Rain = 0
KDC1 221455Z 11002KT 19/M01 A30 RMK A01 T01941014  RH  024%=      5-min Rain = 0
KDC1 221456Z 12002KT 20/M02 A30 RMK A01 T01961021  RH  023%=      5-min Rain = 0
KDC1 221457Z 12002KT 20/M02 A30 RMK A01 T01971024  RH  022%=      5-min Rain = 0
KDC1 221458Z 10003KT 20/M02 A30 RMK A01 T01981022  RH  022%=      5-min Rain = 0
KDC1 221459Z 12002KT 20/M03 A30 RMK A01 T01991030  RH  021%=      5-min Rain = 0
KDC1 221500Z 13003KT 20/M02 A30 RMK A01 T02001023  RH  022%=      5-min Rain = 0
KDC1 221501Z 12004KT 20/M01 A30 RMK A01 T02001011  RH  024%=      5-min Rain = 0
KDC1 221502Z 12004KT 20/M02 A30 RMK A01 T02001019  RH  023%=      5-min Rain = 0
KDC1 221503Z 13004KT 20/M03 A30 RMK A01 T02001025  RH  022%=      5-min Rain = 0
KDC1 221504Z 13004KT 20/M03 A30 RMK A01 T01991029  RH  021%=      5-min Rain = 0
KDC1 221505Z 13004KT 20/M04 A30 RMK A01 T02001036  RH  020%=      5-min Rain = 0
KDC1 221506Z 11005KT 20/M04 A30 RMK A01 T02021038  RH  020%=      5-min Rain = 0
KDC1 221507Z 10005KT 20/M06 A30 RMK A01 T02031055  RH  017%=      5-min Rain = 0
KDC1 221508Z 09005KT 20/M05 A3001 RMK A01 T02041049  RH  018%=      5-min Rain = 0
KDC1 221509Z 09005KT 21/M07 A3001 RMK A01 T02051066  RH  016%=      5-min Rain = 0
KDC1 221510Z 11005KT 21/M04 A3001 RMK A01 T02061040  RH  019%=      5-min Rain = 0
KDC1 221511Z 11005KT 21/M04 A3001 RMK A01 T02071036  RH  019%=      5-min Rain = 0
KDC1 221512Z 12005KT 21/M03 A3001 RMK A01 T02081026  RH  021%=      5-min Rain = 0
KDC1 221513Z 12006KT 21/M03 A3001 RMK A01 T02101032  RH  019%=      5-min Rain = 0
KDC1 221514Z 11005KT 21/M04 A3001 RMK A01 T02111037  RH  019%=      5-min Rain = 0
KDC1 221515Z 11005KT 21/M04 A3001 RMK A01 T02111038  RH  019%=      5-min Rain = 0
KDC1 221516Z 09005KT 21/M04 A3001 RMK A01 T02101043  RH  018%=      5-min Rain = 0
KDC1 221517Z 10004KT 21/M05 A3001 RMK A01 T02101049  RH  017%=      5-min Rain = 0
KDC1 221518Z 09004KT 21/M05 A3001 RMK A01 T02091049  RH  017%=      5-min Rain = 0
KDC1 221519Z 10004KT 21/M05 A3001 RMK A01 T02091048  RH  017%=      5-min Rain = 0
KDC1 221520Z 11004KT 21/M06 A3001 RMK A01 T02091056  RH  016%=      5-min Rain = 0
KDC1 221521Z 11005KT 21/M05 A3001 RMK A01 T02101054  RH  016%=      5-min Rain = 0
KDC1 221522Z 10005KT 21/M06 A3001 RMK A01 T02121055  RH  016%=      5-min Rain = 0
KDC1 221523Z 10005KT 21/M05 A3001 RMK A01 T02131049  RH  017%=      5-min Rain = 0
KDC1 221524Z 10004KT 21/M04 A3001 RMK A01 T02141043  RH  017%=      5-min Rain = 0
KDC1 221525Z 10005KT 21/M04 A3001 RMK A01 T02141044  RH  017%=      5-min Rain = 0
KDC1 221526Z 11004KT 22/M04 A3001 RMK A01 T02151043  RH  017%=      5-min Rain = 0
KDC1 221527Z 12004KT 22/M04 A3001 RMK A01 T02171038  RH  018%=      5-min Rain = 0
KDC1 221528Z 12004KT 22/M03 A3001 RMK A01 T02181028  RH  019%=      5-min Rain = 0
KDC1 221529Z 11005KT 22/M03 A3001 RMK A01 T02191026  RH  019%=      5-min Rain = 0
KDC1 221530Z 10004KT 22/M02 A3001 RMK A01 T02191024  RH  020%=      5-min Rain = 0
KDC1 221531Z 10005KT 22/M03 A3001 RMK A01 T02171025  RH  020%=      5-min Rain = 0
KDC1 221532Z 10006KT 22/M03 A3001 RMK A01 T02171026  RH  019%=      5-min Rain = 0
KDC1 221533Z 11005KT 22/M03 A3001 RMK A01 T02171029  RH  019%=      5-min Rain = 0
KDC1 221534Z 10006KT 22/M04 A3001 RMK A01 T02171036  RH  018%=      5-min Rain = 0
KDC1 221535Z 11005KT 22/M05 A3001 RMK A01 T02181045  RH  017%=      5-min Rain = 0
KDC1 221536Z 11006KT 22/M05 A3001 RMK A01 T02201047  RH  016%=      5-min Rain = 0
KDC1 221537Z 11006KT 22/M05 A3001 RMK A01 T02211053  RH  016%=      5-min Rain = 0
KDC1 221538Z 12005KT 22/M06 A3001 RMK A01 T02211055  RH  015%=      5-min Rain = 0
KDC1 221539Z 11004KT 22/M05 A3001 RMK A01 T02231045  RH  016%=      5-min Rain = 0
KDC1 221540Z 10005KT 22/M04 A3001 RMK A01 T02241042  RH  017%=      5-min Rain = 0
KDC1 221541Z 10006KT 22/M05 A3001 RMK A01 T02241051  RH  015%=      5-min Rain = 0
KDC1 221542Z 10006KT 22/M05 A3001 RMK A01 T02231054  RH  015%=      5-min Rain = 0
KDC1 221543Z 12005KT 22/M05 A3001 RMK A01 T02221054  RH  015%=      5-min Rain = 0
KDC1 221544Z 12005KT 22/M04 A3001 RMK A01 T02231043  RH  016%=      5-min Rain = 0
KDC1 221545Z 12005KT 23/M03 A3001 RMK A01 T02261033  RH  017%=      5-min Rain = 0
KDC1 221546Z 10004KT 23/M05 A3001 RMK A01 T02291046  RH  016%=      5-min Rain = 0
KDC1 221547Z 11005KT 23/M04 A3001 RMK A01 T02291037  RH  017%=      5-min Rain = 0
KDC1 221548Z 11004KT 23/M03 A3001 RMK A01 T02291033  RH  017%=      5-min Rain = 0
KDC1 221549Z 11004KT 23/M03 A3001 RMK A01 T02281030  RH  018%=      5-min Rain = 0
KDC1 221550Z 11005KT 23/M04 A3001 RMK A01 T02301035  RH  017%=      5-min Rain = 0
KDC1 221551Z 12005KT 23/M04 A3001 RMK A01 T02321036  RH  016%=      5-min Rain = 0
KDC1 221552Z 10005KT 23/M04 A3001 RMK A01 T02331042  RH  016%=      5-min Rain = 0
KDC1 221553Z 09003KT 23/M05 A3001 RMK A01 T02341049  RH  015%=      5-min Rain = 0
KDC1 221554Z 11004KT 23/M05 A3001 RMK A01 T02331052  RH  015%=      5-min Rain = 0
KDC1 221555Z 09005KT 23/M06 A3001 RMK A01 T02331057  RH  014%=      5-min Rain = 0
KDC1 221556Z 09003KT 23/M06 A3001 RMK A01 T02331055  RH  014%=      5-min Rain = 0
KDC1 221557Z 10005KT 24/M06 A3001 RMK A01 T02351056  RH  014%=      5-min Rain = 0
KDC1 221558Z 11006KT 24/M06 A3001 RMK A01 T02361061  RH  013%=      5-min Rain = 0
KDC1 221559Z 10006KT 24/M07 A3001 RMK A01 T02351066  RH  013%=      5-min Rain = 0
KDC1 221600Z 11003KT 23/M07 A3001 RMK A01 T02331065  RH  013%=      5-min Rain = 0
KDC1 221601Z 12005KT 23/M06 A3001 RMK A01 T02341055  RH  014%=      5-min Rain = 0
KDC1 221602Z 13004KT 24/M05 A3001 RMK A01 T02351046  RH  015%=      5-min Rain = 0
KDC1 221603Z 11006KT 24/M04 A3001 RMK A01 T02361044  RH  015%=      5-min Rain = 0
KDC1 221604Z 08004KT 24/M07 A3001 RMK A01 T02361066  RH  013%=      5-min Rain = 0
KDC1 221605Z 08003KT 24/M06 A3001 RMK A01 T02361061  RH  013%=      5-min Rain = 0
KDC1 221606Z 10003KT 24/M06 A3001 RMK A01 T02391059  RH  013%=      5-min Rain = 0
KDC1 221607Z 11004KT 24/M06 A3001 RMK A01 T02411060  RH  013%=      5-min Rain = 0
KDC1 221608Z 11004KT 24/M05 A3001 RMK A01 T02411048  RH  014%=      5-min Rain = 0
KDC1 221609Z 12004KT 24/M05 A3001 RMK A01 T02411051  RH  014%=      5-min Rain = 0
KDC1 221610Z 10005KT 24/M06 A3001 RMK A01 T02421059  RH  013%=      5-min Rain = 0
KDC1 221611Z 10004KT 24/M07 A3001 RMK A01 T02411068  RH  012%=      5-min Rain = 0
KDC1 221612Z 10004KT 24/M07 A3001 RMK A01 T02391067  RH  013%=      5-min Rain = 0
KDC1 221613Z 14003KT 24/M06 A3001 RMK A01 T02381063  RH  013%=      5-min Rain = 0
KDC1 221614Z 12005KT 24/M05 A3001 RMK A01 T02401048  RH  014%=      5-min Rain = 0
KDC1 221615Z 13004KT 24/M06 A3001 RMK A01 T02421055  RH  013%=      5-min Rain = 0
KDC1 221616Z 15005KT 24/M05 A3001 RMK A01 T02411052  RH  014%=      5-min Rain = 0
KDC1 221617Z 13006KT 24/M04 A3001 RMK A01 T02411036  RH  016%=      5-min Rain = 0
KDC1 221618Z 13005KT 24/M05 A3001 RMK A01 T02401049  RH  014%=      5-min Rain = 0
KDC1 221619Z 13004KT 24/M05 A3001 RMK A01 T02391052  RH  014%=      5-min Rain = 0
KDC1 221620Z 14004KT 24/M07 A3001 RMK A01 T02381067  RH  013%=      5-min Rain = 0
KDC1 221621Z 14004KT 24/M07 A3001 RMK A01 T02391071  RH  012%=      5-min Rain = 0
KDC1 221622Z 13005KT 24/M06 A3001 RMK A01 T02411059  RH  013%=      5-min Rain = 0
KDC1 221623Z 14005KT 24/M05 A3001 RMK A01 T02431052  RH  014%=      5-min Rain = 0
KDC1 221624Z 14004KT 24/M07 A3001 RMK A01 T02441074  RH  011%=      5-min Rain = 0
KDC1 221625Z 14003KT 24/M07 A3001 RMK A01 T02441071  RH  012%=      5-min Rain = 0
KDC1 221626Z 14004KT 25/M07 A3001 RMK A01 T02461070  RH  012%=      5-min Rain = 0
KDC1 221627Z 13005KT 25/M06 A3001 RMK A01 T02471060  RH  013%=      5-min Rain = 0
KDC1 221628Z 12005KT 25/M06 A3001 RMK A01 T02471058  RH  013%=      5-min Rain = 0
KDC1 221629Z 14005KT 25/M05 A3001 RMK A01 T02471053  RH  013%=      5-min Rain = 0
KDC1 221630Z 14004KT 25/M05 A3001 RMK A01 T02471051  RH  013%=      5-min Rain = 0
KDC1 221631Z 13004KT 25/M05 A3001 RMK A01 T02461051  RH  014%=      5-min Rain = 0
KDC1 221632Z 13004KT 25/M05 A3001 RMK A01 T02461049  RH  014%=      5-min Rain = 0
KDC1 221633Z 13003KT 25/M06 A3001 RMK A01 T02461055  RH  013%=      5-min Rain = 0
KDC1 221634Z 14004KT 25/M05 A3001 RMK A01 T02461054  RH  013%=      5-min Rain = 0
KDC1 221635Z 16003KT 25/M05 A30 RMK A01 T02471047  RH  014%=      5-min Rain = 0
KDC1 221636Z 15003KT 25/M04 A30 RMK A01 T02471040  RH  015%=      5-min Rain = 0
KDC1 221637Z 15003KT 25/M04 A30 RMK A01 T02481039  RH  015%=      5-min Rain = 0
KDC1 221638Z 14003KT 25/M04 A30 RMK A01 T02491043  RH  014%=      5-min Rain = 0
KDC1 221639Z 12005KT 25/M03 A30 RMK A01 T02501032  RH  015%=      5-min Rain = 0
KDC1 221640Z 13004KT 25/M04 A30 RMK A01 T02531035  RH  015%=      5-min Rain = 0
KDC1 221641Z 12005KT 25/M04 A30 RMK A01 T02541040  RH  014%=      5-min Rain = 0
KDC1 221642Z 13005KT 25/M04 A30 RMK A01 T02541039  RH  014%=      5-min Rain = 0
KDC1 221643Z 13004KT 25/M05 A30 RMK A01 T02521045  RH  014%=      5-min Rain = 0
KDC1 221644Z 10005KT 25/M05 A30 RMK A01 T02511048  RH  013%=      5-min Rain = 0
KDC1 221645Z 10005KT 25/M05 A30 RMK A01 T02531052  RH  013%=      5-min Rain = 0
KDC1 221646Z 11005KT 25/M05 A30 RMK A01 T02541046  RH  013%=      5-min Rain = 0
KDC1 221647Z 12005KT 25/M04 A30 RMK A01 T02541042  RH  014%=      5-min Rain = 0
KDC1 221648Z 13005KT 25/M04 A30 RMK A01 T02531039  RH  014%=      5-min Rain = 0
KDC1 221649Z 12005KT 26/M06 A30 RMK A01 T02551062  RH  012%=      5-min Rain = 0
KDC1 221650Z 13005KT 26/M05 A30 RMK A01 T02551052  RH  013%=      5-min Rain = 0
KDC1 221651Z 12005KT 26/M05 A30 RMK A01 T02581045  RH  013%=      5-min Rain = 0
KDC1 221652Z 13004KT 26/M05 A30 RMK A01 T02581054  RH  012%=      5-min Rain = 0
KDC1 221653Z 14006KT 26/M05 A30 RMK A01 T02581048  RH  013%=      5-min Rain = 0
KDC1 221654Z 15004KT 26/M06 A30 RMK A01 T02571056  RH  012%=      5-min Rain = 0
KDC1 221655Z 14004KT 26/M04 A30 RMK A01 T02591041  RH  014%=      5-min Rain = 0
KDC1 221656Z 15004KT 26/M03 A30 RMK A01 T02601030  RH  015%=      5-min Rain = 0
KDC1 221657Z 13004KT 26/M03 A30 RMK A01 T02611028  RH  015%=      5-min Rain = 0
KDC1 221658Z 13006KT 26/M04 A30 RMK A01 T02611043  RH  013%=      5-min Rain = 0
KDC1 221659Z 13005KT 26/M05 A30 RMK A01 T02601049  RH  013%=      5-min Rain = 0
KDC1 221700Z 14005KT 26/M04 A30 RMK A01 T02601035  RH  014%=      5-min Rain = 0
KDC1 221701Z 12005KT 26/M04 A30 RMK A01 T02611038  RH  014%=      5-min Rain = 0
KDC1 221702Z 12004KT 26/M05 A30 RMK A01 T02601051  RH  012%=      5-min Rain = 0
KDC1 221703Z 13006KT 26/M03 A30 RMK A01 T02601031  RH  014%=      5-min Rain = 0
KDC1 221704Z 13006KT 26/M05 A30 RMK A01 T02611046  RH  013%=      5-min Rain = 0
KDC1 221705Z 14005KT 26/M04 A30 RMK A01 T02621044  RH  013%=      5-min Rain = 0
KDC1 221706Z 14006KT 26/M04 A30 RMK A01 T02631040  RH  013%=      5-min Rain = 0
KDC1 221707Z 13006KT 27/M05 A30 RMK A01 T02651046  RH  013%=      5-min Rain = 0
KDC1 221708Z 14006KT 27/M05 A30 RMK A01 T02671049  RH  012%=      5-min Rain = 0
KDC1 221709Z 15006KT 27/M05 A30 RMK A01 T02671052  RH  012%=      5-min Rain = 0
KDC1 221710Z 14006KT 27/M04 A30 RMK A01 T02671039  RH  013%=      5-min Rain = 0
KDC1 221711Z 14005KT 27/M03 A30 RMK A01 T02691030  RH  014%=      5-min Rain = 0
KDC1 221712Z 14005KT 27/M03 A30 RMK A01 T02691025  RH  014%=      5-min Rain = 0
KDC1 221713Z 13005KT 27/M06 A30 RMK A01 T02701056  RH  011%=      5-min Rain = 0
KDC1 221714Z 13006KT 27/M05 A30 RMK A01 T02701048  RH  012%=      5-min Rain = 0
KDC1 221715Z 14004KT 27/M06 A30 RMK A01 T02691062  RH  011%=      5-min Rain = 0
KDC1 221716Z 14005KT 27/M05 A30 RMK A01 T02691045  RH  012%=      5-min Rain = 0
KDC1 221717Z 14006KT 27/M06 A30 RMK A01 T02691062  RH  011%=      5-min Rain = 0
KDC1 221718Z 14006KT 27/M04 A30 RMK A01 T02701037  RH  013%=      5-min Rain = 0
KDC1 221719Z 10003KT 27/M07 A30 RMK A01 T02711069  RH  010%=      5-min Rain = 0
KDC1 221720Z 13003KT 27/M07 A2999 RMK A01 T02691073  RH  010%=      5-min Rain = 0
KDC1 221721Z 12005KT 27/M07 A2999 RMK A01 T02711071  RH  010%=      5-min Rain = 0
KDC1 221722Z 14005KT 27/M07 A2999 RMK A01 T02721066  RH  010%=      5-min Rain = 0
KDC1 221723Z 15004KT 27/M04 A2999 RMK A01 T02721039  RH  013%=      5-min Rain = 0
KDC1 221724Z 15004KT 27/M06 A2999 RMK A01 T02731063  RH  011%=      5-min Rain = 0
KDC1 221725Z 15004KT 27/M07 A2999 RMK A01 T02741074  RH  010%=      5-min Rain = 0
KDC1 221726Z 15004KT 27/M09 A2999 RMK A01 T02731085  RH  009%=      5-min Rain = 0
KDC1 221727Z 15003KT 27/M09 A2999 RMK A01 T02741093  RH  008%=      5-min Rain = 0
KDC1 221728Z 13005KT 28/M06 A2999 RMK A01 T02761059  RH  011%=      5-min Rain = 0
KDC1 221729Z 12005KT 28/M06 A2999 RMK A01 T02771063  RH  010%=      5-min Rain = 0
KDC1 221730Z 11005KT 28/M07 A2999 RMK A01 T02771070  RH  010%=      5-min Rain = 0
KDC1 221731Z 11005KT 28/M07 A2999 RMK A01 T02761073  RH  010%=      5-min Rain = 0
KDC1 221732Z 12005KT 28/M08 A2999 RMK A01 T02751075  RH  010%=      5-min Rain = 0
KDC1 221733Z 13003KT 28/M08 A2999 RMK A01 T02751080  RH  009%=      5-min Rain = 0
KDC1 221734Z 12003KT 28/M08 A2999 RMK A01 T02751080  RH  009%=      5-min Rain = 0
KDC1 221735Z 15003KT 28/M06 A2999 RMK A01 T02781062  RH  010%=      5-min Rain = 0
KDC1 221736Z 13004KT 28/M07 A2999 RMK A01 T02801067  RH  010%=      5-min Rain = 0
KDC1 221737Z 11006KT 28/M07 A2999 RMK A01 T02801067  RH  010%=      5-min Rain = 0
KDC1 221738Z 11005KT 28/M08 A2999 RMK A01 T02801078  RH  009%=      5-min Rain = 0
KDC1 221739Z 12005KT 28/M07 A2999 RMK A01 T02811065  RH  010%=      5-min Rain = 0
KDC1 221740Z 11004KT 28/M07 A2999 RMK A01 T02821070  RH  010%=      5-min Rain = 0
KDC1 221741Z 12005KT 28/M06 A2999 RMK A01 T02811063  RH  010%=      5-min Rain = 0
KDC1 221742Z 12004KT 28/M07 A2999 RMK A01 T02811070  RH  010%=      5-min Rain = 0
KDC1 221743Z 14004KT 28/M06 A2999 RMK A01 T02811061  RH  010%=      5-min Rain = 0
KDC1 221744Z 14004KT 28/M05 A2999 RMK A01 T02831045  RH  011%=      5-min Rain = 0
KDC1 221745Z 12004KT 29/M04 A2999 RMK A01 T02851043  RH  011%=      5-min Rain = 0
KDC1 221746Z 14002KT 29/M05 A2999 RMK A01 T02871047  RH  011%=      5-min Rain = 0
KDC1 221747Z 12003KT 29/M05 A2998 RMK A01 T02881051  RH  011%=      5-min Rain = 0
KDC1 221748Z 10004KT 29/M06 A2998 RMK A01 T02881055  RH  010%=      5-min Rain = 0
KDC1 221749Z 11003KT 29/M06 A2998 RMK A01 T02861064  RH  010%=      5-min Rain = 0
KDC1 221750Z 13002KT 29/M06 A2998 RMK A01 T02861060  RH  010%=      5-min Rain = 0
KDC1 221751Z 12004KT 29/M04 A2998 RMK A01 T02861044  RH  011%=      5-min Rain = 0
KDC1 221752Z 12005KT 29/M05 A2998 RMK A01 T02861051  RH  011%=      5-min Rain = 0
KDC1 221753Z 11003KT 28/M06 A2998 RMK A01 T02841061  RH  010%=      5-min Rain = 0
KDC1 221754Z 13003KT 29/M06 A2998 RMK A01 T02851056  RH  010%=      5-min Rain = 0
KDC1 221755Z 14005KT 29/M04 A2998 RMK A01 T02871038  RH  012%=      5-min Rain = 0
KDC1 221756Z 14005KT 29/M04 A2998 RMK A01 T02871041  RH  011%=      5-min Rain = 0
KDC1 221757Z 14005KT 29/M05 A2998 RMK A01 T02871047  RH  011%=      5-min Rain = 0
KDC1 221758Z 12006KT 29/M05 A2998 RMK A01 T02871046  RH  011%=      5-min Rain = 0
KDC1 221759Z 12006KT 29/M05 A2998 RMK A01 T02861047  RH  011%=      5-min Rain = 0
KDC1 221800Z 12005KT 29/M04 A2998 RMK A01 T02861043  RH  011%=      5-min Rain = 0
KDC1 221801Z 12004KT 29/M05 A2998 RMK A01 T02871049  RH  011%=      5-min Rain = 0
KDC1 221802Z 13004KT 29/M06 A2998 RMK A01 T02891059  RH  010%=      5-min Rain = 0
KDC1 221803Z 11005KT 29/M05 A2998 RMK A01 T02901053  RH  010%=      5-min Rain = 0
KDC1 221804Z 11006KT 29/M07 A2998 RMK A01 T02911070  RH  009%=      5-min Rain = 0
KDC1 221805Z 12005KT 29/M06 A2997 RMK A01 T02911059  RH  010%=      5-min Rain = 0
KDC1 221806Z 12006KT 29/M06 A2997 RMK A01 T02921063  RH  009%=      5-min Rain = 0
KDC1 221807Z 12004KT 29/M06 A2997 RMK A01 T02911061  RH  010%=      5-min Rain = 0
KDC1 221808Z 12003KT 29/M06 A2997 RMK A01 T02901058  RH  010%=      5-min Rain = 0
KDC1 221809Z 11005KT 29/M07 A2997 RMK A01 T02911067  RH  009%=      5-min Rain = 0
KDC1 221810Z 11005KT 29/M07 A2997 RMK A01 T02921073  RH  009%=      5-min Rain = 0
KDC1 221811Z 12004KT 29/M08 A2997 RMK A01 T02931075  RH  009%=      5-min Rain = 0
KDC1 221812Z 11005KT 29/M06 A2997 RMK A01 T02941063  RH  009%=      5-min Rain = 0
KDC1 221813Z 13004KT 30/M06 A2997 RMK A01 T02951057  RH  010%=      5-min Rain = 0
KDC1 221814Z 12005KT 30/M06 A2997 RMK A01 T02951059  RH  010%=      5-min Rain = 0
KDC1 221815Z 13005KT 30/M06 A2997 RMK A01 T02961061  RH  009%=      5-min Rain = 0
KDC1 221816Z 12005KT 30/M06 A2997 RMK A01 T02971056  RH  010%=      5-min Rain = 0
KDC1 221817Z 12005KT 30/M07 A2997 RMK A01 T02971067  RH  009%=      5-min Rain = 0
KDC1 221818Z 13005KT 30/M05 A2997 RMK A01 T02971051  RH  010%=      5-min Rain = 0
KDC1 221819Z 11004KT 30/M06 A2997 RMK A01 T02961060  RH  009%=      5-min Rain = 0
KDC1 221820Z 09004KT 30/M07 A2997 RMK A01 T02961067  RH  009%=      5-min Rain = 0
KDC1 221821Z 11003KT 30/M07 A2997 RMK A01 T02971067  RH  009%=      5-min Rain = 0
KDC1 221822Z 11002KT 30/M08 A2997 RMK A01 T02971075  RH  008%=      5-min Rain = 0
KDC1 221823Z 13005KT 30/M07 A2997 RMK A01 T02991067  RH  009%=      5-min Rain = 0
KDC1 221824Z 16003KT 30/M07 A2996 RMK A01 T02991074  RH  008%=      5-min Rain = 0
KDC1 221825Z 14002KT 30/M07 A2996 RMK A01 T02971069  RH  009%=      5-min Rain = 0
KDC1 221826Z 09004KT 30/M07 A2996 RMK A01 T02971065  RH  009%=      5-min Rain = 0
KDC1 221827Z 12006KT 30/M06 A2996 RMK A01 T02981056  RH  010%=      5-min Rain = 0
KDC1 221828Z 12006KT 30/M06 A2996 RMK A01 T03001058  RH  009%=      5-min Rain = 0
KDC1 221829Z 10006KT 30/M06 A2996 RMK A01 T03001062  RH  009%=      5-min Rain = 0
KDC1 221830Z 09006KT 30/M06 A2996 RMK A01 T03011064  RH  009%=      5-min Rain = 0
KDC1 221831Z 08007KT 30/M07 A2996 RMK A01 T03011068  RH  009%=      5-min Rain = 0
KDC1 221832Z 10005KT 30/M07 A2996 RMK A01 T03011065  RH  009%=      5-min Rain = 0
KDC1 221833Z 12007KT 30/M04 A2996 RMK A01 T03011041  RH  011%=      5-min Rain = 0
KDC1 221834Z 12008KT 30/M05 A2996 RMK A01 T03031046  RH  010%=      5-min Rain = 0
KDC1 221835Z 12005KT 30/M06 A2996 RMK A01 T03021064  RH  009%=      5-min Rain = 0
KDC1 221836Z 12006KT 30/M06 A2996 RMK A01 T03001055  RH  010%=      5-min Rain = 0
KDC1 221837Z 09006KT 30/M06 A2996 RMK A01 T03001062  RH  009%=      5-min Rain = 0
KDC1 221838Z 10006KT 30/M07 A2996 RMK A01 T03011074  RH  008%=      5-min Rain = 0
KDC1 221839Z 08006KT 30/M07 A2996 RMK A01 T03021073  RH  008%=      5-min Rain = 0
KDC1 221840Z 08005KT 30/M07 A2996 RMK A01 T03031073  RH  008%=      5-min Rain = 0
KDC1 221841Z 09009KT 31/M07 A2996 RMK A01 T03061071  RH  008%=      5-min Rain = 0
KDC1 221842Z 08008KT 31/M08 A2996 RMK A01 T03051076  RH  008%=      5-min Rain = 0
KDC1 221843Z 07008KT 30/M08 A2995 RMK A01 T03031075  RH  008%=      5-min Rain = 0
KDC1 221844Z 05005KT 30/M08 A2995 RMK A01 T03021075  RH  008%=      5-min Rain = 0
KDC1 221845Z 07002KT 30/M08 A2995 RMK A01 T03041078  RH  008%=      5-min Rain = 0
KDC1 221846Z 09002KT 31/M07 A2995 RMK A01 T03051073  RH  008%=      5-min Rain = 0
KDC1 221847Z 14003KT 31/M07 A2995 RMK A01 T03051066  RH  009%=      5-min Rain = 0
KDC1 221848Z 11003KT 31/M06 A2995 RMK A01 T03071060  RH  009%=      5-min Rain = 0
KDC1 221849Z 14004KT 31/M05 A2995 RMK A01 T03081045  RH  010%=      5-min Rain = 0
KDC1 221850Z 14005KT 31/M05 A2995 RMK A01 T03081046  RH  010%=      5-min Rain = 0
KDC1 221851Z 12004KT 31/M05 A2995 RMK A01 T03061050  RH  010%=      5-min Rain = 0
KDC1 221852Z 09005KT 31/M07 A2995 RMK A01 T03051067  RH  009%=      5-min Rain = 0
KDC1 221853Z 09005KT 31/M08 A2995 RMK A01 T03051075  RH  008%=      5-min Rain = 0
KDC1 221854Z 10002KT 30/M08 A2995 RMK A01 T03011078  RH  008%=      5-min Rain = 0
KDC1 221855Z 07002KT 30/M08 A2995 RMK A01 T02991077  RH  008%=      5-min Rain = 0
KDC1 221856Z 02001KT 30/M08 A2994 RMK A01 T02991076  RH  008%=      5-min Rain = 0
KDC1 221857Z 11003KT 30/M07 A2994 RMK A01 T03021070  RH  008%=      5-min Rain = 0
KDC1 221858Z 12004KT 30/M07 A2994 RMK A01 T03041069  RH  008%=      5-min Rain = 0
KDC1 221859Z 09004KT 31/M08 A2994 RMK A01 T03051076  RH  008%=      5-min Rain = 0
KDC1 221900Z 12002KT 31/M08 A2994 RMK A01 T03061079  RH  008%=      5-min Rain = 0
KDC1 221901Z 15001KT 31/M08 A2994 RMK A01 T03071079  RH  008%=      5-min Rain = 0
KDC1 221902Z 17002KT 31/M08 A2994 RMK A01 T03091078  RH  008%=      5-min Rain = 0
KDC1 221903Z 18002KT 31/M08 A2994 RMK A01 T03101078  RH  008%=      5-min Rain = 0
KDC1 221904Z 17002KT 31/M07 A2994 RMK A01 T03121074  RH  008%=      5-min Rain = 0
KDC1 221905Z 16002KT 31/M07 A2994 RMK A01 T03141074  RH  008%=      5-min Rain = 0
KDC1 221906Z 16003KT 31/M07 A2994 RMK A01 T03141068  RH  008%=      5-min Rain = 0
KDC1 221907Z 16002KT 31/M08 A2994 RMK A01 T03141076  RH  008%=      5-min Rain = 0
KDC1 221908Z 14003KT 31/M06 A2994 RMK A01 T03141057  RH  009%=      5-min Rain = 0
KDC1 221909Z 15003KT 31/M06 A2994 RMK A01 T03141056  RH  009%=      5-min Rain = 0
KDC1 221910Z 15003KT 31/M07 A2994 RMK A01 T03141070  RH  008%=      5-min Rain = 0
KDC1 221911Z 15005KT 31/M05 A2994 RMK A01 T03141054  RH  009%=      5-min Rain = 0
KDC1 221912Z 14004KT 31/M06 A2994 RMK A01 T03131062  RH  008%=      5-min Rain = 0
KDC1 221913Z 12003KT 31/M06 A2994 RMK A01 T03101062  RH  009%=      5-min Rain = 0
KDC1 221914Z 16002KT 31/M07 A2994 RMK A01 T03111065  RH  008%=      5-min Rain = 0
KDC1 221915Z 15004KT 31/M05 A2994 RMK A01 T03101052  RH  009%=      5-min Rain = 0
KDC1 221916Z 15002KT 31/M07 A2994 RMK A01 T03101065  RH  008%=      5-min Rain = 0
KDC1 221917Z 12003KT 31/M06 A2994 RMK A01 T03101058  RH  009%=      5-min Rain = 0
KDC1 221918Z 16006KT 31/M03 A2994 RMK A01 T03111027  RH  011%=      5-min Rain = 0
KDC1 221919Z 15003KT 31/M06 A2994 RMK A01 T03101062  RH  009%=      5-min Rain = 0
KDC1 221920Z 14002KT 31/M07 A2993 RMK A01 T03101067  RH  008%=      5-min Rain = 0
KDC1 221921Z 12005KT 31/M06 A2993 RMK A01 T03091055  RH  009%=      5-min Rain = 0
KDC1 221922Z 12005KT 31/M05 A2993 RMK A01 T03081048  RH  010%=      5-min Rain = 0
KDC1 221923Z 14005KT 31/M02 A2993 RMK A01 T03111024  RH  011%=      5-min Rain = 0
KDC1 221924Z 18006KT 31/M03 A2993 RMK A01 T03131032  RH  011%=      5-min Rain = 0
KDC1 221925Z 20004KT 31/M06 A2993 RMK A01 T03111057  RH  009%=      5-min Rain = 0
KDC1 221926Z 18003KT 31/M06 A2993 RMK A01 T03091059  RH  009%=      5-min Rain = 0
KDC1 221927Z 15006KT 31/M04 A2993 RMK A01 T03091039  RH  010%=      5-min Rain = 0
KDC1 221928Z 14006KT 31/M06 A2993 RMK A01 T03101056  RH  009%=      5-min Rain = 0
KDC1 221929Z 15005KT 31/M06 A2993 RMK A01 T03091063  RH  009%=      5-min Rain = 0
KDC1 221930Z 18004KT 31/M06 A2993 RMK A01 T03091058  RH  009%=      5-min Rain = 0
KDC1 221931Z 17003KT 31/M07 A2993 RMK A01 T03091067  RH  008%=      5-min Rain = 0
KDC1 221932Z 20005KT 31/M07 A2993 RMK A01 T03101066  RH  008%=      5-min Rain = 0
KDC1 221933Z 21004KT 31/M06 A2993 RMK A01 T03101063  RH  009%=      5-min Rain = 0
KDC1 221934Z 16006KT 31/M06 A2993 RMK A01 T03131058  RH  009%=      5-min Rain = 0
KDC1 221935Z 14004KT 31/M06 A2993 RMK A01 T03121059  RH  009%=      5-min Rain = 0
KDC1 221936Z 14004KT 31/M04 A2993 RMK A01 T03111040  RH  010%=      5-min Rain = 0
KDC1 221937Z 12004KT 31/M03 A2993 RMK A01 T03141026  RH  011%=      5-min Rain = 0
KDC1 221938Z 16008KT 32/M03 A2993 RMK A01 T03171026  RH  011%=      5-min Rain = 0
KDC1 221939Z 17007KT 32/M03 A2993 RMK A01 T03161028  RH  011%=      5-min Rain = 0
KDC1 221940Z 16005KT 32/M03 A2993 RMK A01 T03151028  RH  011%=      5-min Rain = 0
KDC1 221941Z 16008KT 32/M04 A2993 RMK A01 T03151039  RH  010%=      5-min Rain = 0
KDC1 221942Z 16005KT 31/M04 A2993 RMK A01 T03131036  RH  010%=      5-min Rain = 0
KDC1 221943Z 15004KT 31/M04 A2993 RMK A01 T03121040  RH  010%=      5-min Rain = 0
KDC1 221944Z 15004KT 31/M02 A2993 RMK A01 T03121017  RH  012%=      5-min Rain = 0
KDC1 221945Z 16005KT 32/M01 A2993 RMK A01 T03151009  RH  012%=      5-min Rain = 0
KDC1 221946Z 19003KT 32/M05 A2993 RMK A01 T03161050  RH  009%=      5-min Rain = 0
KDC1 221947Z 14003KT 31/M05 A2993 RMK A01 T03141045  RH  010%=      5-min Rain = 0
KDC1 221948Z 11006KT 32/M02 A2992 RMK A01 T03151018  RH  012%=      5-min Rain = 0
KDC1 221949Z 11007KT 31/M05 A2992 RMK A01 T03141050  RH  009%=      5-min Rain = 0
KDC1 221950Z 13006KT 31/M04 A2992 RMK A01 T03131042  RH  010%=      5-min Rain = 0
KDC1 221951Z 12006KT 31/M03 A2992 RMK A01 T03121028  RH  011%=      5-min Rain = 0
KDC1 221952Z 10004KT 31/M06 A2992 RMK A01 T03121056  RH  009%=      5-min Rain = 0
KDC1 221953Z 12006KT 31/M05 A2992 RMK A01 T03131046  RH  010%=      5-min Rain = 0
KDC1 221954Z 12007KT 31/M03 A2992 RMK A01 T03131031  RH  011%=      5-min Rain = 0
KDC1 221955Z 12006KT 31/M02 A2992 RMK A01 T03131024  RH  011%=      5-min Rain = 0
KDC1 221956Z 11007KT 32/M03 A2992 RMK A01 T03151027  RH  011%=      5-min Rain = 0
KDC1 221957Z 11009KT 32/M04 A2992 RMK A01 T03161040  RH  010%=      5-min Rain = 0
KDC1 221958Z 11008KT 32/M03 A2992 RMK A01 T03151033  RH  010%=      5-min Rain = 0
KDC1 221959Z 10006KT 31/M06 A2992 RMK A01 T03141057  RH  009%=      5-min Rain = 0
KDC1 222000Z 13007KT 31/M04 A2992 RMK A01 T03131042  RH  010%=      5-min Rain = 0
KDC1 222001Z 13007KT 31/M01 A2992 RMK A01 T03141008  RH  013%=      5-min Rain = 0
KDC1 222002Z 13005KT 32/M03 A2992 RMK A01 T03151025  RH  011%=      5-min Rain = 0
KDC1 222003Z 13006KT 32/M03 A2992 RMK A01 T03171027  RH  011%=      5-min Rain = 0
KDC1 222004Z 15006KT 32/M02 A2992 RMK A01 T03161024  RH  011%=      5-min Rain = 0
KDC1 222005Z 14004KT 31/M03 A2992 RMK A01 T03131032  RH  011%=      5-min Rain = 0
KDC1 222006Z 15005KT 31/M03 A2992 RMK A01 T03131030  RH  011%=      5-min Rain = 0
KDC1 222007Z 18003KT 31/M02 A2992 RMK A01 T03141021  RH  011%=      5-min Rain = 0
KDC1 222008Z 20004KT 32/M04 A2992 RMK A01 T03151039  RH  010%=      5-min Rain = 0
KDC1 222009Z 16002KT 32/M06 A2992 RMK A01 T03171057  RH  009%=      5-min Rain = 0
KDC1 222010Z 16003KT 32/M07 A2992 RMK A01 T03181067  RH  008%=      5-min Rain = 0
KDC1 222011Z 13006KT 32/M05 A2992 RMK A01 T03181046  RH  009%=      5-min Rain = 0
KDC1 222012Z 15006KT 32/M04 A2992 RMK A01 T03181036  RH  010%=      5-min Rain = 0
KDC1 222013Z 17008KT 32/M03 A2992 RMK A01 T03181029  RH  011%=      5-min Rain = 0
KDC1 222014Z 15009KT 32/M05 A2992 RMK A01 T03181045  RH  009%=      5-min Rain = 0
KDC1 222015Z 18007KT 32/M04 A2991 RMK A01 T03181038  RH  010%=      5-min Rain = 0
KDC1 222016Z 17004KT 32/M06 A2991 RMK A01 T03171055  RH  009%=      5-min Rain = 0
KDC1 222017Z 15008KT 32/M03 A2991 RMK A01 T03181026  RH  011%=      5-min Rain = 0
KDC1 222018Z 16008KT 32/M03 A2991 RMK A01 T03181025  RH  011%=      5-min Rain = 0
KDC1 222019Z 17008KT 32/M03 A2991 RMK A01 T03181025  RH  011%=      5-min Rain = 0
KDC1 222020Z 16007KT 32/M03 A2991 RMK A01 T03221033  RH  010%=      5-min Rain = 0
KDC1 222021Z 16009KT 32/M01 A2991 RMK A01 T03221014  RH  011%=      5-min Rain = 0
KDC1 222022Z 15010KT 32/M02 A2991 RMK A01 T03221018  RH  011%=      5-min Rain = 0
KDC1 222023Z 14008KT 32/M05 A2991 RMK A01 T03201046  RH  009%=      5-min Rain = 0
KDC1 222024Z 13008KT 32/M07 A2991 RMK A01 T03191069  RH  008%=      5-min Rain = 0
KDC1 222025Z 09003KT 32/M08 A2991 RMK A01 T03171076  RH  007%=      5-min Rain = 0
KDC1 222026Z 04002KT 32/M08 A2991 RMK A01 T03151077  RH  007%=      5-min Rain = 0
KDC1 222027Z 06001KT 32/M08 A2991 RMK A01 T03151078  RH  007%=      5-min Rain = 0
KDC1 222028Z 14007KT 32/M04 A2991 RMK A01 T03181039  RH  010%=      5-min Rain = 0
KDC1 222029Z 16010KT 32/M02 A2991 RMK A01 T03201020  RH  011%=      5-min Rain = 0
KDC1 222030Z 15007KT 32/M05 A2991 RMK A01 T03191054  RH  009%=      5-min Rain = 0
KDC1 222031Z 15005KT 32/M05 A2991 RMK A01 T03191045  RH  009%=      5-min Rain = 0
KDC1 222032Z 18004KT 32/M04 A2991 RMK A01 T03191039  RH  010%=      5-min Rain = 0
KDC1 222033Z 22003KT 32/M04 A2991 RMK A01 T03201043  RH  009%=      5-min Rain = 0
KDC1 222034Z 17002KT 32/M06 A2991 RMK A01 T03211055  RH  008%=      5-min Rain = 0
KDC1 222035Z 22006KT 33/M06 A2991 RMK A01 T03251057  RH  008%=      5-min Rain = 0
KDC1 222036Z 24006G11KT 33/M04 A2991 RMK A01 T03271037  RH  009%=      5-min Rain = 0
KDC1 222037Z 24008KT 33/M05 A2991 RMK A01 T03281047  RH  009%=      5-min Rain = 0
KDC1 222038Z 20007G12KT 33/M04 A2991 RMK A01 T03281038  RH  009%=      5-min Rain = 0
KDC1 222039Z 20007KT 33/M06 A2991 RMK A01 T03281060  RH  008%=      5-min Rain = 0
KDC1 222040Z 21007KT 33/M06 A2991 RMK A01 T03281062  RH  008%=      5-min Rain = 0
KDC1 222041Z 22008G16KT 33/M06 A2991 RMK A01 T03261062  RH  008%=      5-min Rain = 0
KDC1 222042Z 23011KT 33/M06 A2991 RMK A01 T03261055  RH  008%=      5-min Rain = 0
KDC1 222043Z 23008KT 33/M03 A2991 RMK A01 T03251034  RH  010%=      5-min Rain = 0
KDC1 222044Z 24009G14KT 32/M02 A2991 RMK A01 T03221018  RH  011%=      5-min Rain = 0
KDC1 222045Z 23007G12KT 32/M01 A2991 RMK A01 T03221010  RH  012%=      5-min Rain = 0
KDC1 222046Z 23008KT 32/M04 A2991 RMK A01 T03221044  RH  009%=      5-min Rain = 0
KDC1 222047Z 24009KT 32/M02 A2991 RMK A01 T03211022  RH  011%=      5-min Rain = 0
KDC1 222048Z 23007KT 32/M02 A2991 RMK A01 T03221021  RH  011%=      5-min Rain = 0
KDC1 222049Z 24008KT 32/M01 A2991 RMK A01 T03231013  RH  011%=      5-min Rain = 0
KDC1 222050Z 25010KT 32/M01 A2991 RMK A01 T03241012  RH  012%=      5-min Rain = 0
KDC1 222051Z 25011KT 32/M05 A299 RMK A01 T03241047  RH  009%=      5-min Rain = 0
KDC1 222052Z 25009KT 32/M05 A2991 RMK A01 T03231047  RH  009%=      5-min Rain = 0
KDC1 222053Z 23008KT 32/M03 A2991 RMK A01 T03241032  RH  010%=      5-min Rain = 0
KDC1 222054Z 22007KT 33/M03 A299 RMK A01 T03251030  RH  010%=      5-min Rain = 0
KDC1 222055Z 22006KT 33/M03 A299 RMK A01 T03251025  RH  010%=      5-min Rain = 0
KDC1 222056Z 22007KT 33/M02 A299 RMK A01 T03271021  RH  011%=      5-min Rain = 0
KDC1 222057Z 23008KT 33/M03 A299 RMK A01 T03281028  RH  010%=      5-min Rain = 0
KDC1 222058Z 23008KT 33/M04 A299 RMK A01 T03281044  RH  009%=      5-min Rain = 0
KDC1 222059Z 22008KT 33/M05 A299 RMK A01 T03261051  RH  009%=      5-min Rain = 0
KDC1 222100Z 22007G12KT 32/M05 A299 RMK A01 T03231048  RH  009%=      5-min Rain = 0
KDC1 222101Z 23009KT 32/M05 A299 RMK A01 T03231047  RH  009%=      5-min Rain = 0
KDC1 222102Z 22008KT 32/M04 A299 RMK A01 T03231038  RH  010%=      5-min Rain = 0
KDC1 222103Z 22007KT 32/M06 A299 RMK A01 T03221056  RH  008%=      5-min Rain = 0
KDC1 222104Z 22003KT 32/M07 A299 RMK A01 T03221068  RH  008%=      5-min Rain = 0
KDC1 222105Z 23008G15KT 33/M07 A299 RMK A01 T03251066  RH  008%=      5-min Rain = 0
KDC1 222106Z 23010KT 33/M04 A299 RMK A01 T03261039  RH  009%=      5-min Rain = 0
KDC1 222107Z 23008KT 33/M05 A299 RMK A01 T03251047  RH  009%=      5-min Rain = 0
KDC1 222108Z 24008G13KT 33/M06 A299 RMK A01 T03251058  RH  008%=      5-min Rain = 0
KDC1 222109Z 23010KT 33/M04 A299 RMK A01 T03251035  RH  010%=      5-min Rain = 0
KDC1 222110Z 22007KT 32/M03 A299 RMK A01 T03241032  RH  010%=      5-min Rain = 0
KDC1 222111Z 23006KT 32/M06 A299 RMK A01 T03221060  RH  008%=      5-min Rain = 0
KDC1 222112Z 23005KT 32/M06 A299 RMK A01 T03211059  RH  008%=      5-min Rain = 0
KDC1 222113Z 24008KT 32/M05 A299 RMK A01 T03231050  RH  009%=      5-min Rain = 0
KDC1 222114Z 21006KT 32/M06 A299 RMK A01 T03241064  RH  008%=      5-min Rain = 0
KDC1 222115Z 21006KT 32/M07 A299 RMK A01 T03241066  RH  008%=      5-min Rain = 0
KDC1 222116Z 22005KT 32/M08 A299 RMK A01 T03241075  RH  007%=      5-min Rain = 0
KDC1 222117Z 25006KT 33/M07 A299 RMK A01 T03261070  RH  007%=      5-min Rain = 0
KDC1 222118Z 25005KT 33/M06 A299 RMK A01 T03261056  RH  008%=      5-min Rain = 0
KDC1 222119Z 24003KT 33/M05 A299 RMK A01 T03261048  RH  009%=      5-min Rain = 0
KDC1 222120Z 24008G13KT 33/M05 A299 RMK A01 T03271048  RH  009%=      5-min Rain = 0
KDC1 222121Z 21007G12KT 33/M04 A299 RMK A01 T03291036  RH  009%=      5-min Rain = 0
KDC1 222122Z 21009G14KT 33/M04 A299 RMK A01 T03291038  RH  009%=      5-min Rain = 0
KDC1 222123Z 21006KT 33/M06 A299 RMK A01 T03281059  RH  008%=      5-min Rain = 0
KDC1 222124Z 23007KT 33/M07 A299 RMK A01 T03281071  RH  007%=      5-min Rain = 0
KDC1 222125Z 24006KT 33/M07 A2989 RMK A01 T03271068  RH  007%=      5-min Rain = 0
KDC1 222126Z 23010G17KT 33/M05 A2989 RMK A01 T03271046  RH  009%=      5-min Rain = 0
KDC1 222127Z 23012KT 33/M05 A2989 RMK A01 T03261052  RH  008%=      5-min Rain = 0
KDC1 222128Z 24010KT 32/M06 A2989 RMK A01 T03241056  RH  008%=      5-min Rain = 0
KDC1 222129Z 24009KT 32/M05 A2989 RMK A01 T03241051  RH  009%=      5-min Rain = 0
KDC1 222130Z 24010KT 32/M04 A2989 RMK A01 T03231039  RH  010%=      5-min Rain = 0
KDC1 222131Z 24009KT 32/M04 A2989 RMK A01 T03221042  RH  009%=      5-min Rain = 0
KDC1 222132Z 26011KT 32/M03 A2989 RMK A01 T03221033  RH  010%=      5-min Rain = 0
KDC1 222133Z 25011KT 32/M05 A2989 RMK A01 T03221049  RH  009%=      5-min Rain = 0
KDC1 222134Z 24007KT 32/M07 A2989 RMK A01 T03241072  RH  007%=      5-min Rain = 0
KDC1 222135Z 25007KT 33/M07 A2989 RMK A01 T03251074  RH  007%=      5-min Rain = 0
KDC1 222136Z 25006KT 33/M06 A2989 RMK A01 T03261055  RH  008%=      5-min Rain = 0
KDC1 222137Z 24006KT 33/M05 A2989 RMK A01 T03261049  RH  009%=      5-min Rain = 0
KDC1 222138Z 25012G17KT 33/M06 A2989 RMK A01 T03261061  RH  008%=      5-min Rain = 0
KDC1 222139Z 24009KT 33/M05 A2989 RMK A01 T03261053  RH  008%=      5-min Rain = 0
KDC1 222140Z 24008KT 33/M05 A2989 RMK A01 T03261049  RH  009%=      5-min Rain = 0
KDC1 222141Z 23007G12KT 33/M03 A2989 RMK A01 T03261033  RH  010%=      5-min Rain = 0
KDC1 222142Z 24013KT 33/M00 A2989 RMK A01 T03251003  RH  012%=      5-min Rain = 0
KDC1 222143Z 24014G20KT 32/M03 A2989 RMK A01 T03221034  RH  010%=      5-min Rain = 0
KDC1 222144Z 24011KT 32/M05 A2989 RMK A01 T03201053  RH  009%=      5-min Rain = 0
KDC1 222145Z 25011KT 32/M04 A2989 RMK A01 T03201041  RH  010%=      5-min Rain = 0
KDC1 222146Z 24010KT 32/M03 A2989 RMK A01 T03201034  RH  010%=      5-min Rain = 0
KDC1 222147Z 24008KT 32/M04 A2989 RMK A01 T03211038  RH  010%=      5-min Rain = 0
KDC1 222148Z 23006KT 32/M05 A2989 RMK A01 T03221053  RH  009%=      5-min Rain = 0
KDC1 222149Z 22004KT 32/M05 A2989 RMK A01 T03231048  RH  009%=      5-min Rain = 0
KDC1 222150Z 22005KT 33/M06 A2989 RMK A01 T03261062  RH  008%=      5-min Rain = 0
KDC1 222151Z 22004KT 33/M07 A2989 RMK A01 T03261070  RH  007%=      5-min Rain = 0
KDC1 222152Z 23006KT 33/M05 A2989 RMK A01 T03271051  RH  008%=      5-min Rain = 0
KDC1 222153Z 25008KT 33/M03 A2989 RMK A01 T03281033  RH  010%=      5-min Rain = 0
KDC1 222154Z 25010KT 33/M03 A2989 RMK A01 T03301027  RH  010%=      5-min Rain = 0
KDC1 222155Z 25013KT 33/M05 A2988 RMK A01 T03281048  RH  009%=      5-min Rain = 0
KDC1 222156Z 25010KT 33/M07 A2988 RMK A01 T03261066  RH  008%=      5-min Rain = 0
KDC1 222157Z 25009KT 33/M07 A2988 RMK A01 T03251067  RH  008%=      5-min Rain = 0
KDC1 222158Z 26012G19KT 33/M04 A2988 RMK A01 T03261043  RH  009%=      5-min Rain = 0
KDC1 222159Z 25012KT 33/M02 A2988 RMK A01 T03251020  RH  011%=      5-min Rain = 0
KDC1 222200Z 23010G16KT 32/M00 A2988 RMK A01 T03241002  RH  012%=      5-min Rain = 0
KDC1 222201Z 23008KT 32/M03 A2989 RMK A01 T03231030  RH  010%=      5-min Rain = 0
KDC1 222202Z 25009KT 32/M05 A2988 RMK A01 T03231050  RH  009%=      5-min Rain = 0
KDC1 222203Z 23007KT 32/M07 A2988 RMK A01 T03231071  RH  007%=      5-min Rain = 0
KDC1 222204Z 23006G11KT 32/M08 A2988 RMK A01 T03241082  RH  007%=      5-min Rain = 0
KDC1 222205Z 25011KT 33/M06 A2988 RMK A01 T03251057  RH  008%=      5-min Rain = 0
KDC1 222206Z 24009KT 32/M06 A2988 RMK A01 T03231062  RH  008%=      5-min Rain = 0
KDC1 222207Z 24007KT 32/M06 A2988 RMK A01 T03221057  RH  008%=      5-min Rain = 0
KDC1 222208Z 25009KT 32/M06 A2988 RMK A01 T03231056  RH  008%=      5-min Rain = 0
KDC1 222209Z 25012KT 32/M05 A2988 RMK A01 T03231053  RH  009%=      5-min Rain = 0
KDC1 222210Z 25011KT 32/M04 A2988 RMK A01 T03221041  RH  009%=      5-min Rain = 0
KDC1 222211Z 26014KT 32/M06 A2988 RMK A01 T03221055  RH  008%=      5-min Rain = 0
KDC1 222212Z 27015KT 33/M09 A2988 RMK A01 T03251088  RH  006%=      5-min Rain = 0
KDC1 222213Z 26015G20KT 33/M08 A2988 RMK A01 T03301081  RH  007%=      5-min Rain = 0
KDC1 222214Z 26014KT 33/M09 A2988 RMK A01 T03331087  RH  006%=      5-min Rain = 0
KDC1 222215Z 25011KT 33/M07 A2988 RMK A01 T03331071  RH  007%=      5-min Rain = 0
KDC1 222216Z 25011KT 33/M07 A2988 RMK A01 T03301071  RH  007%=      5-min Rain = 0
KDC1 222217Z 26014G20KT 33/M06 A2988 RMK A01 T03281062  RH  008%=      5-min Rain = 0
KDC1 222218Z 27016KT 33/M08 A2988 RMK A01 T03301084  RH  006%=      5-min Rain = 0
KDC1 222219Z 26015KT 33/M08 A2988 RMK A01 T03321080  RH  007%=      5-min Rain = 0
KDC1 222220Z 26015KT 33/M09 A2988 RMK A01 T03311087  RH  006%=      5-min Rain = 0
KDC1 222221Z 26011KT 33/M08 A2988 RMK A01 T03291075  RH  007%=      5-min Rain = 0
KDC1 222222Z 26010KT 33/M08 A2988 RMK A01 T03271084  RH  007%=      5-min Rain = 0
KDC1 222223Z 27011KT 33/M09 A2988 RMK A01 T03271091  RH  006%=      5-min Rain = 0
KDC1 222224Z 26009KT 33/M09 A2988 RMK A01 T03261085  RH  007%=      5-min Rain = 0
KDC1 222225Z 26011KT 33/M07 A2988 RMK A01 T03261068  RH  007%=      5-min Rain = 0
KDC1 222226Z 25009KT 33/M09 A2988 RMK A01 T03261089  RH  006%=      5-min Rain = 0
KDC1 222227Z 25008KT 33/M08 A2988 RMK A01 T03261083  RH  007%=      5-min Rain = 0
KDC1 222228Z 24008G13KT 33/M08 A2988 RMK A01 T03271075  RH  007%=      5-min Rain = 0
KDC1 222229Z 23005KT 33/M04 A2988 RMK A01 T03271038  RH  009%=      5-min Rain = 0
KDC1 222230Z 23007KT 33/M03 A2988 RMK A01 T03261034  RH  010%=      5-min Rain = 0
KDC1 222231Z 21008KT 33/M05 A2988 RMK A01 T03261045  RH  009%=      5-min Rain = 0
KDC1 222232Z 22007KT 33/M06 A2988 RMK A01 T03261057  RH  008%=      5-min Rain = 0
KDC1 222233Z 22008KT 33/M08 A2988 RMK A01 T03261081  RH  007%=      5-min Rain = 0
KDC1 222234Z 20008KT 33/M09 A2987 RMK A01 T03251090  RH  006%=      5-min Rain = 0
KDC1 222235Z 22007KT 32/M09 A2987 RMK A01 T03241087  RH  007%=      5-min Rain = 0
KDC1 222236Z 22005KT 32/M09 A2987 RMK A01 T03241088  RH  006%=      5-min Rain = 0
KDC1 222237Z 23007KT 33/M06 A2987 RMK A01 T03251063  RH  008%=      5-min Rain = 0
KDC1 222238Z 24004KT 33/M04 A2987 RMK A01 T03271035  RH  010%=      5-min Rain = 0
KDC1 222239Z 24009KT 33/M04 A2987 RMK A01 T03281037  RH  009%=      5-min Rain = 0
KDC1 222240Z 23007G15KT 33/M04 A2987 RMK A01 T03271039  RH  009%=      5-min Rain = 0
KDC1 222241Z 23007KT 32/M03 A2987 RMK A01 T03241028  RH  010%=      5-min Rain = 0
KDC1 222242Z 23006KT 32/M03 A2987 RMK A01 T03231025  RH  011%=      5-min Rain = 0
KDC1 222243Z 24008KT 32/M02 A2987 RMK A01 T03231021  RH  011%=      5-min Rain = 0
KDC1 222244Z 24009KT 32/M03 A2987 RMK A01 T03231033  RH  010%=      5-min Rain = 0
KDC1 222245Z 24010KT 32/M06 A2987 RMK A01 T03221055  RH  008%=      5-min Rain = 0
KDC1 222246Z 25009KT 32/M04 A2987 RMK A01 T03201043  RH  009%=      5-min Rain = 0
KDC1 222247Z 25010KT 32/M06 A2987 RMK A01 T03191056  RH  008%=      5-min Rain = 0
KDC1 222248Z 24006KT 32/M04 A2987 RMK A01 T03191041  RH  010%=      5-min Rain = 0
KDC1 222249Z 25007KT 32/M02 A2987 RMK A01 T03201023  RH  011%=      5-min Rain = 0
KDC1 222250Z 24005KT 32/M04 A2987 RMK A01 T03191036  RH  010%=      5-min Rain = 0
KDC1 222251Z 24006KT 32/M03 A2987 RMK A01 T03201033  RH  010%=      5-min Rain = 0
KDC1 222252Z 25008KT 32/M03 A2987 RMK A01 T03211031  RH  010%=      5-min Rain = 0
KDC1 222253Z 25009KT 32/M04 A2987 RMK A01 T03221037  RH  010%=      5-min Rain = 0
KDC1 222254Z 24013KT 32/M04 A2987 RMK A01 T03221044  RH  009%=      5-min Rain = 0
KDC1 222255Z 25014KT 32/M05 A2987 RMK A01 T03211046  RH  009%=      5-min Rain = 0
KDC1 222256Z 25013KT 32/M04 A2987 RMK A01 T03171036  RH  010%=      5-min Rain = 0
KDC1 222257Z 24011KT 32/M05 A2987 RMK A01 T03171050  RH  009%=      5-min Rain = 0
KDC1 222258Z 24012KT 32/M04 A2987 RMK A01 T03181043  RH  009%=      5-min Rain = 0
KDC1 222259Z 24011G16KT 32/M06 A2987 RMK A01 T03171060  RH  008%=      5-min Rain = 0
KDC1 222300Z 24010KT 32/M04 A2987 RMK A01 T03181036  RH  010%=      5-min Rain = 0
KDC1 222301Z 24011KT 32/M03 A2987 RMK A01 T03181034  RH  010%=      5-min Rain = 0
KDC1 222302Z 26006KT 32/M05 A2987 RMK A01 T03171046  RH  009%=      5-min Rain = 0
KDC1 222303Z 24006KT 32/M06 A2987 RMK A01 T03181060  RH  008%=      5-min Rain = 0
KDC1 222304Z 25009G14KT 32/M05 A2987 RMK A01 T03201053  RH  009%=      5-min Rain = 0
KDC1 222305Z 26012KT 32/M07 A2987 RMK A01 T03211073  RH  007%=      5-min Rain = 0
KDC1 222306Z 25008KT 32/M07 A2987 RMK A01 T03241068  RH  008%=      5-min Rain = 0
KDC1 222307Z 24009KT 32/M05 A2987 RMK A01 T03241049  RH  009%=      5-min Rain = 0
KDC1 222308Z 25010KT 32/M06 A2987 RMK A01 T03231062  RH  008%=      5-min Rain = 0
KDC1 222309Z 25011KT 32/M04 A2987 RMK A01 T03221044  RH  009%=      5-min Rain = 0
KDC1 222310Z 25011KT 32/M04 A2987 RMK A01 T03191042  RH  009%=      5-min Rain = 0
KDC1 222311Z 25012KT 32/M04 A2987 RMK A01 T03181035  RH  010%=      5-min Rain = 0
KDC1 222312Z 25011KT 32/M06 A2987 RMK A01 T03171061  RH  008%=      5-min Rain = 0
KDC1 222313Z 25011KT 32/M06 A2987 RMK A01 T03191058  RH  008%=      5-min Rain = 0
KDC1 222314Z 25011G18KT 32/M03 A2987 RMK A01 T03201030  RH  010%=      5-min Rain = 0
KDC1 222315Z 25012KT 32/M06 A2986 RMK A01 T03181060  RH  008%=      5-min Rain = 0
KDC1 222316Z 24010G15KT 32/M05 A2986 RMK A01 T03181051  RH  009%=      5-min Rain = 0
KDC1 222317Z 23008G14KT 32/M05 A2986 RMK A01 T03181048  RH  009%=      5-min Rain = 0
KDC1 222318Z 23009KT 32/M04 A2986 RMK A01 T03181042  RH  010%=      5-min Rain = 0
KDC1 222319Z 22007KT 32/M03 A2986 RMK A01 T03181034  RH  010%=      5-min Rain = 0
KDC1 222320Z 22006KT 32/M05 A2986 RMK A01 T03181046  RH  009%=      5-min Rain = 0
KDC1 222321Z 23003KT 32/M05 A2986 RMK A01 T03181048  RH  009%=      5-min Rain = 0
KDC1 222322Z 21005KT 32/M04 A2986 RMK A01 T03211043  RH  009%=      5-min Rain = 0
KDC1 222323Z 23005KT 32/M05 A2986 RMK A01 T03221046  RH  009%=      5-min Rain = 0
KDC1 222324Z 24004KT 32/M04 A2986 RMK A01 T03231043  RH  009%=      5-min Rain = 0
KDC1 222325Z 24008KT 33/M03 A2986 RMK A01 T03251029  RH  010%=      5-min Rain = 0
KDC1 222326Z 24008KT 33/M03 A2986 RMK A01 T03251034  RH  010%=      5-min Rain = 0
KDC1 222327Z 24010G16KT 32/M02 A2986 RMK A01 T03231023  RH  011%=      5-min Rain = 0
KDC1 222328Z 24010KT 32/M03 A2986 RMK A01 T03201033  RH  010%=      5-min Rain = 0
KDC1 222329Z 25009G14KT 32/M05 A2986 RMK A01 T03181054  RH  009%=      5-min Rain = 0
KDC1 222330Z 26012G18KT 32/M05 A2986 RMK A01 T03181046  RH  009%=      5-min Rain = 0
KDC1 222331Z 25016KT 32/M06 A2986 RMK A01 T03181057  RH  009%=      5-min Rain = 0
KDC1 222332Z 26013KT 32/M06 A2986 RMK A01 T03171062  RH  008%=      5-min Rain = 0
KDC1 222333Z 26013KT 32/M06 A2986 RMK A01 T03161055  RH  009%=      5-min Rain = 0
KDC1 222334Z 26014KT 32/M06 A2986 RMK A01 T03161055  RH  009%=      5-min Rain = 0
KDC1 222335Z 25012KT 32/M06 A2986 RMK A01 T03151055  RH  009%=      5-min Rain = 0
KDC1 222336Z 25013KT 32/M06 A2986 RMK A01 T03151056  RH  009%=      5-min Rain = 0
KDC1 222337Z 26012KT 32/M07 A2986 RMK A01 T03161069  RH  008%=      5-min Rain = 0
KDC1 222338Z 26011KT 32/M07 A2986 RMK A01 T03201072  RH  008%=      5-min Rain = 0
KDC1 222339Z 27010KT 32/M07 A2986 RMK A01 T03231074  RH  007%=      5-min Rain = 0
KDC1 222340Z 27009KT 32/M09 A2986 RMK A01 T03241086  RH  007%=      5-min Rain = 0
KDC1 222341Z 23005KT 32/M07 A2986 RMK A01 T03231065  RH  008%=      5-min Rain = 0
KDC1 222342Z 23004KT 32/M03 A2986 RMK A01 T03221025  RH  011%=      5-min Rain = 0
KDC1 222343Z 23005KT 32/M02 A2986 RMK A01 T03201017  RH  011%=      5-min Rain = 0
KDC1 222344Z 24007KT 32/M02 A2986 RMK A01 T03181015  RH  012%=      5-min Rain = 0
KDC1 222345Z 23007G12KT 32/M03 A2986 RMK A01 T03161027  RH  011%=      5-min Rain = 0
KDC1 222346Z 23009G14KT 32/M02 A2986 RMK A01 T03151021  RH  011%=      5-min Rain = 0
KDC1 222347Z 23008KT 32/M03 A2986 RMK A01 T03161027  RH  011%=      5-min Rain = 0
KDC1 222348Z 24008KT 32/M03 A2986 RMK A01 T03151028  RH  011%=      5-min Rain = 0
KDC1 222349Z 24009KT 32/M03 A2986 RMK A01 T03151030  RH  011%=      5-min Rain = 0
KDC1 222350Z 24008KT 32/M03 A2986 RMK A01 T03151032  RH  011%=      5-min Rain = 0
KDC1 222351Z 24008KT 31/M03 A2986 RMK A01 T03131030  RH  011%=      5-min Rain = 0
KDC1 222352Z 25007KT 31/M02 A2986 RMK A01 T03131022  RH  011%=      5-min Rain = 0
KDC1 222353Z 25007KT 31/M01 A2986 RMK A01 T03111008  RH  013%=      5-min Rain = 0
KDC1 222354Z 24005KT 31/M00 A2986 RMK A01 T03081003  RH  013%=      5-min Rain = 0
KDC1 222355Z 24005KT 31/00 A2986 RMK A01 T03070002  RH  014%=      5-min Rain = 0
KDC1 222356Z 24007KT 31/00 A2986 RMK A01 T03060002  RH  014%=      5-min Rain = 0
KDC1 222357Z 24006KT 31/M01 A2986 RMK A01 T03061007  RH  013%=      5-min Rain = 0
KDC1 222358Z 24008KT 31/M01 A2986 RMK A01 T03071009  RH  013%=      5-min Rain = 0
KDC1 222359Z 22008G14KT 31/M02 A2986 RMK A01 T03081021  RH  012%=      5-min Rain = 0
KDC1 230000Z 23008KT 31/M03 A2986 RMK A01 T03101034  RH  011%=      5-min Rain = 0
KDC1 230001Z 23007KT 31/M04 A2986 RMK A01 T03101037  RH  010%=      5-min Rain = 0
KDC1 230002Z 22006KT 31/M04 A2986 RMK A01 T03121037  RH  010%=      5-min Rain = 0
KDC1 230003Z 24005KT 31/M04 A2985 RMK A01 T03121043  RH  010%=      5-min Rain = 0
KDC1 230004Z 24008G13KT 31/M04 A2985 RMK A01 T03121040  RH  010%=      5-min Rain = 0
KDC1 230005Z 22008KT 31/M06 A2985 RMK A01 T03131056  RH  009%=      5-min Rain = 0
KDC1 230006Z 22005KT 31/M05 A2985 RMK A01 T03131049  RH  009%=      5-min Rain = 0
KDC1 230007Z 22007KT 31/M03 A2985 RMK A01 T03131034  RH  010%=      5-min Rain = 0
KDC1 230008Z 24005KT 31/M02 A2985 RMK A01 T03121023  RH  011%=      5-min Rain = 0
KDC1 230009Z 24008KT 31/M01 A2985 RMK A01 T03111013  RH  012%=      5-min Rain = 0
KDC1 230010Z 25009KT 31/M01 A2985 RMK A01 T03101009  RH  013%=      5-min Rain = 0
KDC1 230011Z 25009KT 31/M02 A2985 RMK A01 T03081017  RH  012%=      5-min Rain = 0
KDC1 230012Z 24009KT 31/M02 A2985 RMK A01 T03061017  RH  012%=      5-min Rain = 0
KDC1 230013Z 23010KT 31/M04 A2985 RMK A01 T03051043  RH  010%=      5-min Rain = 0
KDC1 230014Z 25007KT 31/M08 A2985 RMK A01 T03061075  RH  008%=      5-min Rain = 0
KDC1 230015Z 26010KT 31/M05 A2985 RMK A01 T03091046  RH  010%=      5-min Rain = 0
KDC1 230016Z 25008KT 31/M06 A2985 RMK A01 T03091055  RH  009%=      5-min Rain = 0
KDC1 230017Z 24007KT 31/M06 A2985 RMK A01 T03091060  RH  009%=      5-min Rain = 0
KDC1 230018Z 25006KT 31/M05 A2985 RMK A01 T03101052  RH  009%=      5-min Rain = 0
KDC1 230019Z 25007KT 31/M04 A2985 RMK A01 T03111043  RH  010%=      5-min Rain = 0
KDC1 230020Z 25008KT 31/M04 A2985 RMK A01 T03111042  RH  010%=      5-min Rain = 0
KDC1 230021Z 24009KT 31/M04 A2985 RMK A01 T03111038  RH  010%=      5-min Rain = 0
KDC1 230022Z 24006KT 31/M02 A2985 RMK A01 T03101018  RH  012%=      5-min Rain = 0
KDC1 230023Z 23007KT 31/M01 A2985 RMK A01 T03071014  RH  012%=      5-min Rain = 0
KDC1 230024Z 24008KT 31/M03 A2985 RMK A01 T03061025  RH  012%=      5-min Rain = 0
KDC1 230025Z 24008KT 31/M04 A2986 RMK A01 T03061037  RH  011%=      5-min Rain = 0
KDC1 230026Z 25007KT 31/M03 A2986 RMK A01 T03061032  RH  011%=      5-min Rain = 0
KDC1 230027Z 25009KT 31/M02 A2986 RMK A01 T03061023  RH  012%=      5-min Rain = 0
KDC1 230028Z 25010KT 31/M03 A2986 RMK A01 T03051030  RH  011%=      5-min Rain = 0
KDC1 230029Z 24007KT 31/M03 A2986 RMK A01 T03051030  RH  011%=      5-min Rain = 0
KDC1 230030Z 25009KT 31/M02 A2986 RMK A01 T03051022  RH  012%=      5-min Rain = 0
KDC1 230031Z 25009KT 30/M02 A2986 RMK A01 T03031024  RH  012%=      5-min Rain = 0
KDC1 230032Z 24008KT 30/M02 A2986 RMK A01 T03011022  RH  012%=      5-min Rain = 0
KDC1 230033Z 24008KT 30/M02 A2986 RMK A01 T03001021  RH  012%=      5-min Rain = 0
KDC1 230034Z 23008KT 30/M03 A2986 RMK A01 T02991026  RH  012%=      5-min Rain = 0
KDC1 230035Z 24009KT 30/M03 A2986 RMK A01 T02981026  RH  012%=      5-min Rain = 0
KDC1 230036Z 24010KT 30/M03 A2986 RMK A01 T02981031  RH  012%=      5-min Rain = 0
KDC1 230037Z 24008KT 30/M04 A2986 RMK A01 T02981038  RH  011%=      5-min Rain = 0
KDC1 230038Z 23007KT 30/M04 A2986 RMK A01 T02991042  RH  011%=      5-min Rain = 0
KDC1 230039Z 24007KT 30/M04 A2986 RMK A01 T03001038  RH  011%=      5-min Rain = 0
KDC1 230040Z 24007KT 30/M03 A2986 RMK A01 T03001028  RH  012%=      5-min Rain = 0
KDC1 230041Z 24006KT 30/M02 A2986 RMK A01 T03001023  RH  012%=      5-min Rain = 0
KDC1 230042Z 24007KT 30/M02 A2986 RMK A01 T02991023  RH  012%=      5-min Rain = 0
KDC1 230043Z 25008KT 30/M02 A2986 RMK A01 T02991019  RH  013%=      5-min Rain = 0
KDC1 230044Z 25010KT 30/M02 A2986 RMK A01 T02971016  RH  013%=      5-min Rain = 0
KDC1 230045Z 25011KT 30/M03 A2986 RMK A01 T02961032  RH  012%=      5-min Rain = 0
KDC1 230046Z 25009KT 30/M06 A2986 RMK A01 T02961058  RH  010%=      5-min Rain = 0
KDC1 230047Z 25010KT 30/M06 A2986 RMK A01 T02991056  RH  010%=      5-min Rain = 0
KDC1 230048Z 25011KT 30/M06 A2986 RMK A01 T03001063  RH  009%=      5-min Rain = 0
KDC1 230049Z 25010KT 30/M06 A2986 RMK A01 T03021062  RH  009%=      5-min Rain = 0
KDC1 230050Z 25008KT 30/M05 A2986 RMK A01 T03021048  RH  010%=      5-min Rain = 0
KDC1 230051Z 25010KT 30/M05 A2986 RMK A01 T03001046  RH  010%=      5-min Rain = 0
KDC1 230052Z 24009KT 30/M05 A2986 RMK A01 T03001052  RH  010%=      5-min Rain = 0
KDC1 230053Z 25008KT 30/M04 A2986 RMK A01 T03001038  RH  011%=      5-min Rain = 0
KDC1 230054Z 24008KT 30/M03 A2986 RMK A01 T02971027  RH  012%=      5-min Rain = 0
KDC1 230055Z 24007KT 29/M02 A2986 RMK A01 T02941022  RH  013%=      5-min Rain = 0
KDC1 230056Z 24007KT 29/M02 A2986 RMK A01 T02921023  RH  013%=      5-min Rain = 0
KDC1 230057Z 24008KT 29/M02 A2986 RMK A01 T02911023  RH  013%=      5-min Rain = 0
KDC1 230058Z 24008KT 29/M03 A2986 RMK A01 T02911026  RH  013%=      5-min Rain = 0
KDC1 230059Z 25009KT 29/M03 A2986 RMK A01 T02911028  RH  012%=      5-min Rain = 0
KDC1 230100Z 25009KT 29/M03 A2986 RMK A01 T02901025  RH  013%=      5-min Rain = 0
KDC1 230101Z 25010KT 29/M03 A2986 RMK A01 T02891027  RH  013%=      5-min Rain = 0
KDC1 230102Z 24010KT 29/M03 A2986 RMK A01 T02891028  RH  013%=      5-min Rain = 0
KDC1 230103Z 25008KT 29/M03 A2986 RMK A01 T02881030  RH  012%=      5-min Rain = 0
KDC1 230104Z 24008KT 29/M04 A2986 RMK A01 T02881036  RH  012%=      5-min Rain = 0
KDC1 230105Z 25006KT 29/M03 A2986 RMK A01 T02881033  RH  012%=      5-min Rain = 0
KDC1 230106Z 24007KT 29/M03 A2986 RMK A01 T02891030  RH  012%=      5-min Rain = 0
KDC1 230107Z 25007KT 29/M03 A2986 RMK A01 T02881028  RH  013%=      5-min Rain = 0
KDC1 230108Z 23006KT 29/M03 A2986 RMK A01 T02881025  RH  013%=      5-min Rain = 0
KDC1 230109Z 24006KT 29/M03 A2986 RMK A01 T02871025  RH  013%=      5-min Rain = 0
KDC1 230110Z 25008KT 29/M02 A2986 RMK A01 T02861018  RH  014%=      5-min Rain = 0
KDC1 230111Z 24008KT 28/M02 A2986 RMK A01 T02841020  RH  014%=      5-min Rain = 0
KDC1 230112Z 25009KT 28/M02 A2986 RMK A01 T02831016  RH  014%=      5-min Rain = 0
KDC1 230113Z 26009KT 28/M02 A2986 RMK A01 T02811022  RH  014%=      5-min Rain = 0
KDC1 230114Z 25008KT 28/M04 A2986 RMK A01 T02821036  RH  012%=      5-min Rain = 0
KDC1 230115Z 24006G11KT 28/M03 A2986 RMK A01 T02831027  RH  013%=      5-min Rain = 0
KDC1 230116Z 24006KT 28/M02 A2986 RMK A01 T02831019  RH  014%=      5-min Rain = 0
KDC1 230117Z 24007KT 28/M02 A2986 RMK A01 T02801017  RH  014%=      5-min Rain = 0
KDC1 230118Z 25009KT 28/M02 A2986 RMK A01 T02791020  RH  014%=      5-min Rain = 0
KDC1 230119Z 25009KT 28/M02 A2986 RMK A01 T02781022  RH  014%=      5-min Rain = 0
KDC1 230120Z 25009KT 28/M03 A2986 RMK A01 T02771030  RH  013%=      5-min Rain = 0
KDC1 230121Z 26009KT 28/M04 A2986 RMK A01 T02771038  RH  012%=      5-min Rain = 0
KDC1 230122Z 25011KT 28/M05 A2986 RMK A01 T02791052  RH  011%=      5-min Rain = 0
KDC1 230123Z 25009KT 28/M06 A2986 RMK A01 T02831060  RH  010%=      5-min Rain = 0
KDC1 230124Z 25009KT 29/M06 A2986 RMK A01 T02851056  RH  010%=      5-min Rain = 0
KDC1 230125Z 25009KT 29/M05 A2986 RMK A01 T02851053  RH  011%=      5-min Rain = 0
KDC1 230126Z 25009KT 29/M05 A2986 RMK A01 T02851054  RH  011%=      5-min Rain = 0
KDC1 230127Z 25009KT 28/M05 A2986 RMK A01 T02841052  RH  011%=      5-min Rain = 0
KDC1 230128Z 25008KT 28/M05 A2986 RMK A01 T02841052  RH  011%=      5-min Rain = 0
KDC1 230129Z 25011KT 28/M05 A2986 RMK A01 T02841052  RH  011%=      5-min Rain = 0
KDC1 230130Z 25009KT 28/M06 A2986 RMK A01 T02831057  RH  010%=      5-min Rain = 0
KDC1 230131Z 25009KT 28/M06 A2986 RMK A01 T02841056  RH  010%=      5-min Rain = 0
KDC1 230132Z 25008KT 28/M06 A2986 RMK A01 T02831056  RH  010%=      5-min Rain = 0
KDC1 230133Z 26008KT 28/M06 A2986 RMK A01 T02821055  RH  011%=      5-min Rain = 0
KDC1 230134Z 26007KT 28/M06 A2986 RMK A01 T02811057  RH  011%=      5-min Rain = 0
KDC1 230135Z 26007KT 28/M06 A2986 RMK A01 T02801059  RH  010%=      5-min Rain = 0
KDC1 230136Z 26007KT 28/M05 A2986 RMK A01 T02801054  RH  011%=      5-min Rain = 0
KDC1 230137Z 25006KT 28/M05 A2986 RMK A01 T02781049  RH  011%=      5-min Rain = 0
KDC1 230138Z 26007KT 28/M05 A2986 RMK A01 T02761048  RH  012%=      5-min Rain = 0
KDC1 230139Z 26008KT 27/M05 A2986 RMK A01 T02741052  RH  011%=      5-min Rain = 0
KDC1 230140Z 26009KT 27/M06 A2986 RMK A01 T02741057  RH  011%=      5-min Rain = 0
KDC1 230141Z 26008KT 27/M06 A2986 RMK A01 T02741059  RH  011%=      5-min Rain = 0
KDC1 230142Z 26008KT 28/M06 A2986 RMK A01 T02751061  RH  011%=      5-min Rain = 0
KDC1 230143Z 26010KT 28/M06 A2986 RMK A01 T02751063  RH  010%=      5-min Rain = 0
KDC1 230144Z 25010KT 28/M07 A2986 RMK A01 T02751067  RH  010%=      5-min Rain = 0
KDC1 230145Z 26009KT 28/M07 A2986 RMK A01 T02771068  RH  010%=      5-min Rain = 0
KDC1 230146Z 26009KT 28/M07 A2986 RMK A01 T02771068  RH  010%=      5-min Rain = 0
KDC1 230147Z 26009KT 28/M07 A2986 RMK A01 T02761067  RH  010%=      5-min Rain = 0
KDC1 230148Z 26008KT 27/M06 A2986 RMK A01 T02741062  RH  011%=      5-min Rain = 0
KDC1 230149Z 26007KT 27/M06 A2986 RMK A01 T02711060  RH  011%=      5-min Rain = 0
KDC1 230150Z 27007KT 27/M06 A2986 RMK A01 T02681059  RH  011%=      5-min Rain = 0
KDC1 230151Z 26007KT 27/M06 A2986 RMK A01 T02651059  RH  011%=      5-min Rain = 0
KDC1 230152Z 26007KT 26/M06 A2986 RMK A01 T02621064  RH  011%=      5-min Rain = 0
KDC1 230153Z 26007KT 26/M06 A2986 RMK A01 T02581064  RH  011%=      5-min Rain = 0
KDC1 230154Z 26007KT 26/M06 A2986 RMK A01 T02551063  RH  012%=      5-min Rain = 0
KDC1 230155Z 26007KT 25/M06 A2986 RMK A01 T02531061  RH  012%=      5-min Rain = 0
KDC1 230156Z 26007KT 25/M06 A2986 RMK A01 T02511059  RH  012%=      5-min Rain = 0
KDC1 230157Z 26006KT 25/M06 A2986 RMK A01 T02501060  RH  012%=      5-min Rain = 0
KDC1 230158Z 27006KT 25/M06 A2986 RMK A01 T02521055  RH  013%=      5-min Rain = 0
KDC1 230159Z 27007KT 25/M05 A2986 RMK A01 T02491047  RH  014%=      5-min Rain = 0
KDC1 230200Z 26008KT 24/M04 A2986 RMK A01 T02431043  RH  015%=      5-min Rain = 0
KDC1 230201Z 26007KT 24/M05 A2986 RMK A01 T02401050  RH  014%=      5-min Rain = 0
KDC1 230202Z 26008KT 24/M06 A2986 RMK A01 T02401058  RH  013%=      5-min Rain = 0
KDC1 230203Z 26007KT 24/M06 A2986 RMK A01 T02421057  RH  013%=      5-min Rain = 0
KDC1 230204Z 26007KT 24/M06 A2986 RMK A01 T02421055  RH  013%=      5-min Rain = 0
KDC1 230205Z 26007KT 24/M06 A2986 RMK A01 T02411056  RH  013%=      5-min Rain = 0
KDC1 230206Z 26007KT 24/M06 A2986 RMK A01 T02421055  RH  013%=      5-min Rain = 0
KDC1 230207Z 26007KT 24/M05 A2986 RMK A01 T02421054  RH  014%=      5-min Rain = 0
KDC1 230208Z 26007KT 24/M05 A2986 RMK A01 T02421053  RH  014%=      5-min Rain = 0
KDC1 230209Z 27007KT 24/M05 A2986 RMK A01 T02411049  RH  014%=      5-min Rain = 0
KDC1 230210Z 27007KT 24/M05 A2986 RMK A01 T02371046  RH  015%=      5-min Rain = 0
KDC1 230211Z 27007KT 23/M04 A2986 RMK A01 T02331044  RH  015%=      5-min Rain = 0
KDC1 230212Z 27007KT 23/M04 A2986 RMK A01 T02271039  RH  017%=      5-min Rain = 0
KDC1 230213Z 27007KT 22/M03 A2986 RMK A01 T02231034  RH  018%=      5-min Rain = 0
KDC1 230214Z 27007KT 22/M03 A2986 RMK A01 T02191033  RH  018%=      5-min Rain = 0
KDC1 230215Z 27007KT 22/M03 A2986 RMK A01 T02161029  RH  019%=      5-min Rain = 0
KDC1 230216Z 27007KT 21/M02 A2986 RMK A01 T02141020  RH  021%=      5-min Rain = 0
KDC1 230217Z 26006KT 21/M01 A2986 RMK A01 T02111014  RH  022%=      5-min Rain = 0
KDC1 230218Z 26006KT 21/M02 A2986 RMK A01 T02101015  RH  022%=      5-min Rain = 0
KDC1 230219Z 26007KT 21/M02 A2986 RMK A01 T02101022  RH  021%=      5-min Rain = 0
KDC1 230220Z 26007KT 21/M02 A2986 RMK A01 T02121023  RH  020%=      5-min Rain = 0
KDC1 230221Z 26007KT 21/M02 A2986 RMK A01 T02131019  RH  021%=      5-min Rain = 0
KDC1 230222Z 27007KT 21/M02 A2986 RMK A01 T02121015  RH  022%=      5-min Rain = 0
KDC1 230223Z 27007KT 21/M02 A2986 RMK A01 T02111017  RH  022%=      5-min Rain = 0
KDC1 230224Z 27006KT 21/M02 A2986 RMK A01 T02101015  RH  022%=      5-min Rain = 0
KDC1 230225Z 26006KT 21/M01 A2986 RMK A01 T02081014  RH  022%=      5-min Rain = 0
KDC1 230226Z 25005KT 21/M02 A2986 RMK A01 T02081020  RH  021%=      5-min Rain = 0
KDC1 230227Z 26005KT 21/M01 A2986 RMK A01 T02091013  RH  022%=      5-min Rain = 0
KDC1 230228Z 26006KT 21/M02 A2986 RMK A01 T02091018  RH  022%=      5-min Rain = 0
KDC1 230229Z 25005KT 21/M02 A2986 RMK A01 T02091018  RH  022%=      5-min Rain = 0
KDC1 230230Z 25006KT 21/M02 A2986 RMK A01 T02091020  RH  021%=      5-min Rain = 0
KDC1 230231Z 25006KT 21/M02 A2986 RMK A01 T02091017  RH  022%=      5-min Rain = 0
KDC1 230232Z 26006KT 21/M02 A2986 RMK A01 T02081016  RH  022%=      5-min Rain = 0
KDC1 230233Z 25006KT 21/M01 A2986 RMK A01 T02081013  RH  023%=      5-min Rain = 0
KDC1 230234Z 26006KT 21/M01 A2986 RMK A01 T02061013  RH  023%=      5-min Rain = 0
KDC1 230235Z 26006KT 21/M01 A2986 RMK A01 T02051013  RH  023%=      5-min Rain = 0
KDC1 230236Z 25006KT 20/M02 A2986 RMK A01 T02041017  RH  022%=      5-min Rain = 0
KDC1 230237Z 25005KT 20/M02 A2986 RMK A01 T02031016  RH  023%=      5-min Rain = 0
KDC1 230238Z 26006KT 20/M01 A2986 RMK A01 T02021013  RH  023%=      5-min Rain = 0
KDC1 230239Z 26006KT 20/M01 A2986 RMK A01 T02001012  RH  024%=      5-min Rain = 0
KDC1 230240Z 26006KT 20/M01 A2986 RMK A01 T01971009  RH  025%=      5-min Rain = 0
KDC1 230241Z 26007KT 20/M00 A2987 RMK A01 T01951001  RH  027%=      5-min Rain = 0
KDC1 230242Z 27007KT 19/00 A2987 RMK A01 T01930002  RH  028%=      5-min Rain = 0
KDC1 230243Z 27007KT 19/00 A2987 RMK A01 T01920004  RH  028%=      5-min Rain = 0
KDC1 230244Z 27007KT 19/00 A2987 RMK A01 T01910001  RH  028%=      5-min Rain = 0
KDC1 230245Z 27007KT 19/00 A2987 RMK A01 T01900003  RH  028%=      5-min Rain = 0
KDC1 230246Z 27007KT 19/00 A2987 RMK A01 T01890003  RH  028%=      5-min Rain = 0
KDC1 230247Z 27007KT 19/00 A2987 RMK A01 T01880003  RH  029%=      5-min Rain = 0
KDC1 230248Z 27007KT 19/00 A2987 RMK A01 T01880002  RH  029%=      5-min Rain = 0
KDC1 230249Z 27006KT 19/01 A2987 RMK A01 T01870006  RH  030%=      5-min Rain = 0
KDC1 230250Z 27006KT 19/01 A2987 RMK A01 T01850009  RH  031%=      5-min Rain = 0
KDC1 230251Z 27006KT 18/01 A2987 RMK A01 T01830011  RH  031%=      5-min Rain = 0
KDC1 230252Z 27006KT 18/01 A2987 RMK A01 T01820014  RH  033%=      5-min Rain = 0
KDC1 230253Z 27007KT 18/02 A2987 RMK A01 T01800017  RH  033%=      5-min Rain = 0
KDC1 230254Z 27007KT 18/02 A2987 RMK A01 T01780019  RH  034%=      5-min Rain = 0
KDC1 230255Z 27006KT 18/02 A2987 RMK A01 T01770020  RH  035%=      5-min Rain = 0
KDC1 230256Z 27007KT 18/02 A2987 RMK A01 T01760022  RH  035%=      5-min Rain = 0
KDC1 230257Z 27007KT 18/02 A2987 RMK A01 T01750023  RH  036%=      5-min Rain = 0
KDC1 230258Z 27006KT 18/02 A2987 RMK A01 T01750022  RH  036%=      5-min Rain = 0
KDC1 230259Z 27006KT 18/02 A2987 RMK A01 T01750022  RH  036%=      5-min Rain = 0
KDC1 230300Z 27006KT 17/02 A2987 RMK A01 T01740023  RH  036%=      5-min Rain = 0
KDC1 230301Z 27006KT 17/02 A2987 RMK A01 T01740023  RH  036%=      5-min Rain = 0
KDC1 230302Z 27006KT 18/02 A2987 RMK A01 T01750024  RH  036%=      5-min Rain = 0
KDC1 230303Z 27006KT 18/03 A2987 RMK A01 T01750026  RH  037%=      5-min Rain = 0
KDC1 230304Z 27006KT 18/03 A2987 RMK A01 T01750026  RH  037%=      5-min Rain = 0
KDC1 230305Z 26004KT 17/03 A2987 RMK A01 T01740028  RH  037%=      5-min Rain = 0
KDC1 230306Z 26005KT 17/03 A2987 RMK A01 T01730030  RH  038%=      5-min Rain = 0
KDC1 230307Z 27005KT 17/03 A2987 RMK A01 T01710034  RH  040%=      5-min Rain = 0
KDC1 230308Z 27006KT 17/04 A2987 RMK A01 T01690037  RH  041%=      5-min Rain = 0
KDC1 230309Z 27006KT 17/04 A2987 RMK A01 T01660037  RH  042%=      5-min Rain = 0
KDC1 230310Z 27006KT 17/04 A2987 RMK A01 T01650037  RH  042%=      5-min Rain = 0
KDC1 230311Z 27006KT 17/04 A2987 RMK A01 T01650036  RH  042%=      5-min Rain = 0
KDC1 230312Z 27006KT 16/04 A2987 RMK A01 T01640037  RH  043%=      5-min Rain = 0
KDC1 230313Z 27006KT 16/04 A2987 RMK A01 T01630038  RH  043%=      5-min Rain = 0
KDC1 230314Z 27006KT 16/04 A2987 RMK A01 T01630040  RH  044%=      5-min Rain = 0
KDC1 230315Z 27006KT 16/04 A2987 RMK A01 T01620039  RH  044%=      5-min Rain = 0
KDC1 230316Z 27006KT 16/04 A2987 RMK A01 T01620038  RH  044%=      5-min Rain = 0
KDC1 230317Z 27006KT 16/03 A2987 RMK A01 T01610034  RH  043%=      5-min Rain = 0
KDC1 230318Z 27006KT 16/03 A2987 RMK A01 T01620031  RH  041%=      5-min Rain = 0
KDC1 230319Z 27005KT 16/03 A2987 RMK A01 T01630028  RH  040%=      5-min Rain = 0
KDC1 230320Z 27005KT 16/03 A2987 RMK A01 T01640027  RH  040%=      5-min Rain = 0
KDC1 230321Z 28005KT 17/03 A2987 RMK A01 T01650025  RH  039%=      5-min Rain = 0
KDC1 230322Z 28005KT 17/03 A2987 RMK A01 T01650025  RH  039%=      5-min Rain = 0
KDC1 230323Z 29006KT 17/03 A2987 RMK A01 T01660025  RH  039%=      5-min Rain = 0
KDC1 230324Z 29006KT 17/02 A2987 RMK A01 T01650024  RH  039%=      5-min Rain = 0
KDC1 230325Z 29006KT 16/03 A2987 RMK A01 T01640025  RH  039%=      5-min Rain = 0
KDC1 230326Z 29006KT 16/03 A2987 RMK A01 T01630027  RH  040%=      5-min Rain = 0
KDC1 230327Z 28006KT 16/03 A2987 RMK A01 T01620026  RH  040%=      5-min Rain = 0
KDC1 230328Z 28006KT 16/03 A2987 RMK A01 T01610025  RH  040%=      5-min Rain = 0
KDC1 230329Z 28006KT 16/02 A2987 RMK A01 T01610023  RH  040%=      5-min Rain = 0
KDC1 230330Z 28006KT 16/02 A2987 RMK A01 T01610016  RH  037%=      5-min Rain = 0
KDC1 230331Z 28006KT 16/01 A2987 RMK A01 T01640010  RH  035%=      5-min Rain = 0
KDC1 230332Z 28006KT 17/01 A2987 RMK A01 T01650013  RH  036%=      5-min Rain = 0
KDC1 230333Z 28007KT 17/02 A2987 RMK A01 T01660015  RH  036%=      5-min Rain = 0
KDC1 230334Z 28007KT 17/02 A2987 RMK A01 T01650016  RH  037%=      5-min Rain = 0
KDC1 230335Z 28007KT 16/02 A2987 RMK A01 T01640016  RH  037%=      5-min Rain = 0
KDC1 230336Z 28007KT 16/01 A2987 RMK A01 T01640011  RH  036%=      5-min Rain = 0
KDC1 230337Z 28007KT 16/01 A2987 RMK A01 T01640009  RH  035%=      5-min Rain = 0
KDC1 230338Z 28007KT 16/01 A2987 RMK A01 T01640010  RH  035%=      5-min Rain = 0
KDC1 230339Z 28007KT 16/01 A2987 RMK A01 T01640011  RH  035%=      5-min Rain = 0
KDC1 230340Z 28007KT 16/01 A2987 RMK A01 T01640008  RH  035%=      5-min Rain = 0
KDC1 230341Z 28007KT 16/01 A2987 RMK A01 T01640009  RH  035%=      5-min Rain = 0
KDC1 230342Z 28007KT 16/01 A2988 RMK A01 T01640008  RH  035%=      5-min Rain = 0
KDC1 230343Z 28006KT 16/01 A2988 RMK A01 T01640008  RH  035%=      5-min Rain = 0
KDC1 230344Z 28006KT 16/01 A2988 RMK A01 T01640008  RH  035%=      5-min Rain = 0
KDC1 230345Z 28006KT 16/00 A2988 RMK A01 T01640003  RH  034%=      5-min Rain = 0
KDC1 230346Z 28006KT 16/00 A2988 RMK A01 T01640002  RH  033%=      5-min Rain = 0
KDC1 230347Z 28006KT 17/00 A2988 RMK A01 T01650004  RH  033%=      5-min Rain = 0
KDC1 230348Z 28006KT 16/01 A2988 RMK A01 T01640008  RH  035%=      5-min Rain = 0
KDC1 230349Z 28006KT 16/01 A2988 RMK A01 T01630005  RH  034%=      5-min Rain = 0
KDC1 230350Z 28006KT 16/00 A2988 RMK A01 T01620001  RH  034%=      5-min Rain = 0
KDC1 230351Z 29006KT 16/00 A2988 RMK A01 T016200-0  RH  033%=      5-min Rain = 0
KDC1 230352Z 29006KT 16/00 A2988 RMK A01 T01620000  RH  033%=      5-min Rain = 0
KDC1 230353Z 29007KT 16/00 A2988 RMK A01 T01620001  RH  033%=      5-min Rain = 0
KDC1 230354Z 29006KT 16/00 A2988 RMK A01 T01620002  RH  034%=      5-min Rain = 0
KDC1 230355Z 29006KT 16/00 A2988 RMK A01 T01610003  RH  034%=      5-min Rain = 0
KDC1 230356Z 28006KT 16/M01 A2988 RMK A01 T01611006  RH  032%=      5-min Rain = 0
KDC1 230357Z 28005KT 16/M01 A2988 RMK A01 T01631012  RH  030%=      5-min Rain = 0
KDC1 230358Z 27004KT 17/M02 A2988 RMK A01 T01671023  RH  027%=      5-min Rain = 0
KDC1 230359Z 27004KT 17/M03 A2988 RMK A01 T01721033  RH  024%=      5-min Rain = 0
KDC1 230400Z 26003KT 18/M04 A2988 RMK A01 T01771038  RH  023%=      5-min Rain = 0
KDC1 230401Z 26003KT 18/M05 A2988 RMK A01 T01801046  RH  021%=      5-min Rain = 0
KDC1 230402Z 26002KT 18/M05 A2988 RMK A01 T01821050  RH  020%=      5-min Rain = 0
KDC1 230403Z 27003KT 19/M06 A2988 RMK A01 T01851057  RH  019%=      5-min Rain = 0
KDC1 230404Z 26003KT 19/M06 A2988 RMK A01 T01861060  RH  018%=      5-min Rain = 0
KDC1 230405Z 27003KT 19/M06 A2988 RMK A01 T01881057  RH  018%=      5-min Rain = 0
KDC1 230406Z 26002KT 19/M06 A2988 RMK A01 T01891056  RH  019%=      5-min Rain = 0
KDC1 230407Z 27003KT 19/M06 A2988 RMK A01 T01891055  RH  019%=      5-min Rain = 0
KDC1 230408Z 25002KT 19/M05 A2988 RMK A01 T01901051  RH  019%=      5-min Rain = 0
KDC1 230409Z 23002KT 19/M03 A2988 RMK A01 T01901031  RH  022%=      5-min Rain = 0
KDC1 230410Z 24002KT 19/M03 A2989 RMK A01 T01881034  RH  022%=      5-min Rain = 0
KDC1 230411Z 24002KT 19/M03 A2989 RMK A01 T01871027  RH  023%=      5-min Rain = 0
KDC1 230412Z 22001KT 19/M03 A2989 RMK A01 T01861032  RH  023%=      5-min Rain = 0
KDC1 230413Z 23002KT 19/M04 A2989 RMK A01 T01851036  RH  022%=      5-min Rain = 0
KDC1 230414Z 25002KT 19/M05 A2989 RMK A01 T01851046  RH  020%=      5-min Rain = 0
KDC1 230415Z 24003KT 19/M05 A2989 RMK A01 T01851045  RH  021%=      5-min Rain = 0
KDC1 230416Z 24003KT 19/M05 A2989 RMK A01 T01851045  RH  021%=      5-min Rain = 0
KDC1 230417Z 25003KT 19/M05 A2989 RMK A01 T01851050  RH  020%=      5-min Rain = 0
KDC1 230418Z 25003KT 19/M05 A2989 RMK A01 T01851053  RH  019%=      5-min Rain = 0
KDC1 230419Z 25004KT 19/M05 A2989 RMK A01 T01861054  RH  019%=      5-min Rain = 0
KDC1 230420Z 26004KT 19/M05 A2989 RMK A01 T01861050  RH  020%=      5-min Rain = 0
KDC1 230421Z 26005KT 19/M05 A2989 RMK A01 T01861049  RH  020%=      5-min Rain = 0
KDC1 230422Z 26005KT 19/M05 A2989 RMK A01 T01871052  RH  019%=      5-min Rain = 0
KDC1 230423Z 27006KT 19/M05 A2989 RMK A01 T01861051  RH  019%=      5-min Rain = 0
KDC1 230424Z 27005KT 19/M05 A2989 RMK A01 T01861051  RH  020%=      5-min Rain = 0
KDC1 230425Z 26005KT 18/M05 A2989 RMK A01 T01841047  RH  020%=      5-min Rain = 0
KDC1 230426Z 26005KT 18/M05 A2989 RMK A01 T01821047  RH  021%=      5-min Rain = 0
KDC1 230427Z 27006KT 18/M05 A2989 RMK A01 T01811051  RH  020%=      5-min Rain = 0
KDC1 230428Z 27006KT 18/M05 A2989 RMK A01 T01821048  RH  021%=      5-min Rain = 0
KDC1 230429Z 27006KT 18/M04 A2989 RMK A01 T01821042  RH  021%=      5-min Rain = 0
KDC1 230430Z 27006KT 18/M05 A2989 RMK A01 T01811045  RH  021%=      5-min Rain = 0
KDC1 230431Z 27006KT 18/M04 A2989 RMK A01 T01791043  RH  022%=      5-min Rain = 0
KDC1 230432Z 26006KT 18/M04 A2989 RMK A01 T01791042  RH  022%=      5-min Rain = 0
KDC1 230433Z 26006KT 18/M05 A2989 RMK A01 T01801048  RH  021%=      5-min Rain = 0
KDC1 230434Z 26006KT 18/M05 A2989 RMK A01 T01821047  RH  021%=      5-min Rain = 0
KDC1 230435Z 25005KT 19/M05 A2989 RMK A01 T01851046  RH  020%=      5-min Rain = 0
KDC1 230436Z 25005KT 19/M04 A2989 RMK A01 T01861044  RH  021%=      5-min Rain = 0
KDC1 230437Z 26005KT 19/M04 A2989 RMK A01 T01871042  RH  021%=      5-min Rain = 0
KDC1 230438Z 25005KT 19/M04 A2989 RMK A01 T01861037  RH  022%=      5-min Rain = 0
KDC1 230439Z 25005KT 19/M04 A2989 RMK A01 T01851036  RH  022%=      5-min Rain = 0
KDC1 230440Z 26005KT 18/M04 A2989 RMK A01 T01841037  RH  022%=      5-min Rain = 0
KDC1 230441Z 26005KT 18/M04 A2989 RMK A01 T01831035  RH  022%=      5-min Rain = 0
KDC1 230442Z 26006KT 18/M03 A2989 RMK A01 T01821026  RH  024%=      5-min Rain = 0
KDC1 230443Z 26006KT 18/M02 A2989 RMK A01 T01801021  RH  025%=      5-min Rain = 0
KDC1 230444Z 27006KT 18/M02 A2989 RMK A01 T01781019  RH  026%=      5-min Rain = 0
KDC1 230445Z 26006KT 18/M02 A2989 RMK A01 T01751018  RH  027%=      5-min Rain = 0
KDC1 230446Z 26006KT 17/M02 A2989 RMK A01 T01731023  RH  026%=      5-min Rain = 0
KDC1 230447Z 26006KT 17/M03 A2989 RMK A01 T01721026  RH  026%=      5-min Rain = 0
KDC1 230448Z 26006KT 17/M03 A2989 RMK A01 T01711030  RH  025%=      5-min Rain = 0
KDC1 230449Z 26006KT 17/M03 A2989 RMK A01 T01711031  RH  025%=      5-min Rain = 0
KDC1 230450Z 26005KT 17/M03 A2989 RMK A01 T01701033  RH  025%=      5-min Rain = 0
KDC1 230451Z 26006KT 17/M04 A2989 RMK A01 T01711038  RH  024%=      5-min Rain = 0
KDC1 230452Z 26006KT 17/M04 A2989 RMK A01 T01711041  RH  023%=      5-min Rain = 0
KDC1 230453Z 26006KT 17/M04 A2989 RMK A01 T01721040  RH  023%=      5-min Rain = 0
KDC1 230454Z 26006KT 17/M03 A2989 RMK A01 T01711033  RH  025%=      5-min Rain = 0
KDC1 230455Z 26005KT 17/M04 A2989 RMK A01 T01711037  RH  024%=      5-min Rain = 0
KDC1 230456Z 24004KT 17/M04 A2989 RMK A01 T01701036  RH  024%=      5-min Rain = 0
KDC1 230457Z 19002KT 17/M04 A2989 RMK A01 T01691036  RH  024%=      5-min Rain = 0
KDC1 230458Z 19002KT 17/M01 A2989 RMK A01 T01691014  RH  029%=      5-min Rain = 0
KDC1 230459Z 21003KT 17/M02 A2989 RMK A01 T01691018  RH  028%=      5-min Rain = 0

Page generated in 0.0711 seconds.